BAW755 EGKK-TNCM
Flight info
| Callsign | BAW755 |
|---|---|
| Flight time | 8h 17m |
| Altitude | 34000 |
| Route | NOVMA DCT SAM DCT GAPLI/M085F340 DCT BEDRA DCT 4820N DCT 4530N DCT 3940N DCT 3150N/M085F360 DCT RKDIA/N0498F360 DCT MNOLO DCT OTMOT DCT AVAKI DCT LESOR DCT MAPON |
| Aircraft | A35K/H-SDE2E3GHIJ3J4J5LM1ORWXY/LB1D1 |
Departure
| Time | 2026-04-10 10:27 |
|---|---|
| Airport | London Gatwick Airport (EGKK) |
Arrival
| Time | 2026-04-10 18:45 |
|---|---|
| Airport | Princess Juliana International Airport (TNCM) |
| Time | Latitude | Longitude | Altitude | Speed | Heading |
|---|---|---|---|---|---|
| 2026-04-10 09:52 | 51.15824 | -0.16948 | 210 ft | 0 kts | 89° |
| 2026-04-10 10:16 | 51.15824 | -0.16980 | 216 ft | 4 kts | 89° |
| 2026-04-10 10:17 | 51.15824 | -0.17023 | 210 ft | 4 kts | 89° |
| 2026-04-10 10:17 | 51.15824 | -0.17059 | 210 ft | 4 kts | 111° |
| 2026-04-10 10:17 | 51.15840 | -0.17085 | 223 ft | 4 kts | 168° |
| 2026-04-10 10:17 | 51.15866 | -0.17089 | 216 ft | 3 kts | 178° |
| 2026-04-10 10:18 | 51.15874 | -0.17089 | 213 ft | 0 kts | 178° |
| 2026-04-10 10:21 | 51.15871 | -0.17089 | 210 ft | 2 kts | 178° |
| 2026-04-10 10:21 | 51.15848 | -0.17109 | 221 ft | 5 kts | 228° |
| 2026-04-10 10:21 | 51.15839 | -0.17177 | 220 ft | 8 kts | 245° |
| 2026-04-10 10:21 | 51.15804 | -0.17277 | 221 ft | 13 kts | 241° |
| 2026-04-10 10:22 | 51.15772 | -0.17428 | 216 ft | 16 kts | 253° |
| 2026-04-10 10:22 | 51.15763 | -0.17474 | 220 ft | 0 kts | 252° |
| 2026-04-10 10:22 | 51.15756 | -0.17482 | 219 ft | 2 kts | 220° |
| 2026-04-10 10:22 | 51.15727 | -0.17490 | 215 ft | 6 kts | 180° |
| 2026-04-10 10:23 | 51.15668 | -0.17476 | 221 ft | 11 kts | 172° |
| 2026-04-10 10:23 | 51.15583 | -0.17452 | 218 ft | 14 kts | 169° |
| 2026-04-10 10:23 | 51.15472 | -0.17417 | 210 ft | 18 kts | 167° |
| 2026-04-10 10:23 | 51.15348 | -0.17363 | 216 ft | 18 kts | 162° |
| 2026-04-10 10:24 | 51.15256 | -0.17267 | 217 ft | 15 kts | 105° |
| 2026-04-10 10:24 | 51.15218 | -0.17124 | 222 ft | 10 kts | 123° |
| 2026-04-10 10:24 | 51.15198 | -0.17118 | 216 ft | 0 kts | 197° |
| 2026-04-10 10:25 | 51.15192 | -0.17122 | 215 ft | 4 kts | 198° |
| 2026-04-10 10:26 | 51.15134 | -0.17142 | 220 ft | 13 kts | 188° |
| 2026-04-10 10:26 | 51.15062 | -0.17258 | 215 ft | 23 kts | 256° |
| 2026-04-10 10:26 | 51.14981 | -0.17850 | 223 ft | 87 kts | 257° |
| 2026-04-10 10:26 | 51.14803 | -0.19110 | 223 ft | 145 kts | 257° |
| 2026-04-10 10:27 | 51.14554 | -0.20898 | 325 ft | 181 kts | 256° |
| 2026-04-10 10:27 | 51.14274 | -0.22841 | 1044 ft | 175 kts | 255° |
| 2026-04-10 10:27 | 51.13996 | -0.24821 | 1479 ft | 194 kts | 256° |
| 2026-04-10 10:27 | 51.13691 | -0.27036 | 1764 ft | 221 kts | 256° |
| 2026-04-10 10:28 | 51.13342 | -0.29582 | 2106 ft | 246 kts | 256° |
| 2026-04-10 10:28 | 51.12967 | -0.32286 | 2878 ft | 253 kts | 256° |
| 2026-04-10 10:28 | 51.12591 | -0.35019 | 3587 ft | 252 kts | 256° |
| 2026-04-10 10:28 | 51.12211 | -0.37745 | 4103 ft | 253 kts | 257° |
| 2026-04-10 10:29 | 51.11828 | -0.40499 | 4593 ft | 255 kts | 257° |
| 2026-04-10 10:29 | 51.11354 | -0.43222 | 5102 ft | 256 kts | 249° |
| 2026-04-10 10:29 | 51.10883 | -0.44944 | 5444 ft | 256 kts | 245° |
| 2026-04-10 10:29 | 51.10091 | -0.47502 | 5930 ft | 258 kts | 245° |
| 2026-04-10 10:30 | 51.09278 | -0.50064 | 6463 ft | 259 kts | 245° |
| 2026-04-10 10:30 | 51.08460 | -0.52646 | 7029 ft | 260 kts | 246° |
| 2026-04-10 10:30 | 51.07664 | -0.55183 | 7705 ft | 259 kts | 246° |
| 2026-04-10 10:30 | 51.06858 | -0.57782 | 8395 ft | 261 kts | 246° |
| 2026-04-10 10:31 | 51.06054 | -0.60354 | 9154 ft | 260 kts | 246° |
| 2026-04-10 10:31 | 51.05351 | -0.63010 | 9837 ft | 260 kts | 255° |
| 2026-04-10 10:31 | 51.04916 | -0.65785 | 10516 ft | 258 kts | 258° |
| 2026-04-10 10:31 | 51.04543 | -0.68577 | 11068 ft | 259 kts | 259° |
| 2026-04-10 10:32 | 51.04178 | -0.71362 | 11601 ft | 262 kts | 259° |
| 2026-04-10 10:32 | 51.03800 | -0.74206 | 12059 ft | 264 kts | 259° |
| 2026-04-10 10:32 | 51.03419 | -0.77071 | 12424 ft | 267 kts | 259° |
| 2026-04-10 10:32 | 51.03024 | -0.80016 | 12619 ft | 276 kts | 259° |
| 2026-04-10 10:33 | 51.02613 | -0.83047 | 12783 ft | 286 kts | 259° |
| 2026-04-10 10:33 | 51.02183 | -0.86192 | 12949 ft | 295 kts | 259° |
| 2026-04-10 10:33 | 51.01740 | -0.89426 | 13133 ft | 303 kts | 259° |
| 2026-04-10 10:33 | 51.01287 | -0.92738 | 13312 ft | 312 kts | 259° |
| 2026-04-10 10:34 | 51.00820 | -0.96155 | 13491 ft | 319 kts | 259° |
| 2026-04-10 10:34 | 51.00349 | -0.99598 | 13700 ft | 326 kts | 259° |
| 2026-04-10 10:34 | 50.99862 | -1.03154 | 13880 ft | 334 kts | 259° |
| 2026-04-10 10:34 | 50.99363 | -1.06796 | 14042 ft | 341 kts | 259° |
| 2026-04-10 10:35 | 50.98853 | -1.10515 | 14172 ft | 348 kts | 259° |
| 2026-04-10 10:35 | 50.98333 | -1.14297 | 14359 ft | 353 kts | 259° |
| 2026-04-10 10:35 | 50.97806 | -1.18106 | 14667 ft | 354 kts | 259° |
| 2026-04-10 10:35 | 50.97272 | -1.21939 | 15010 ft | 355 kts | 259° |
| 2026-04-10 10:36 | 50.96738 | -1.25765 | 15318 ft | 356 kts | 259° |
| 2026-04-10 10:36 | 50.96207 | -1.29558 | 15654 ft | 357 kts | 259° |
| 2026-04-10 10:36 | 50.95667 | -1.33406 | 15990 ft | 358 kts | 259° |
| 2026-04-10 10:36 | 50.95136 | -1.37284 | 16339 ft | 358 kts | 261° |
| 2026-04-10 10:37 | 50.94671 | -1.41175 | 16693 ft | 359 kts | 262° |
| 2026-04-10 10:37 | 50.94242 | -1.45078 | 17028 ft | 360 kts | 262° |
| 2026-04-10 10:37 | 50.93822 | -1.49004 | 17355 ft | 361 kts | 262° |
| 2026-04-10 10:37 | 50.93398 | -1.52930 | 17695 ft | 362 kts | 262° |
| 2026-04-10 10:38 | 50.92963 | -1.56882 | 18021 ft | 363 kts | 262° |
| 2026-04-10 10:38 | 50.92524 | -1.60779 | 18320 ft | 364 kts | 262° |
| 2026-04-10 10:38 | 50.92071 | -1.64747 | 18608 ft | 366 kts | 262° |
| 2026-04-10 10:38 | 50.91613 | -1.68714 | 18879 ft | 367 kts | 262° |
| 2026-04-10 10:39 | 50.91151 | -1.72693 | 19153 ft | 368 kts | 262° |
| 2026-04-10 10:39 | 50.90685 | -1.76687 | 19419 ft | 369 kts | 262° |
| 2026-04-10 10:39 | 50.90216 | -1.80699 | 19695 ft | 370 kts | 261° |
| 2026-04-10 10:39 | 50.89747 | -1.84711 | 19964 ft | 371 kts | 261° |
| 2026-04-10 10:40 | 50.89275 | -1.88734 | 20194 ft | 372 kts | 261° |
| 2026-04-10 10:40 | 50.88799 | -1.92791 | 20304 ft | 378 kts | 261° |
| 2026-04-10 10:40 | 50.88319 | -1.96860 | 20416 ft | 383 kts | 261° |
| 2026-04-10 10:40 | 50.87826 | -2.01031 | 20578 ft | 386 kts | 261° |
| 2026-04-10 10:41 | 50.87328 | -2.05227 | 20821 ft | 388 kts | 261° |
| 2026-04-10 10:41 | 50.86828 | -2.09421 | 21125 ft | 388 kts | 261° |
| 2026-04-10 10:41 | 50.86325 | -2.13624 | 21382 ft | 389 kts | 261° |
| 2026-04-10 10:41 | 50.85819 | -2.17838 | 21630 ft | 390 kts | 260° |
| 2026-04-10 10:42 | 50.85310 | -2.22065 | 21831 ft | 393 kts | 260° |
| 2026-04-10 10:42 | 50.84795 | -2.26333 | 22033 ft | 395 kts | 260° |
| 2026-04-10 10:42 | 50.84276 | -2.30609 | 22299 ft | 396 kts | 260° |
| 2026-04-10 10:42 | 50.83761 | -2.34846 | 22592 ft | 397 kts | 260° |
| 2026-04-10 10:43 | 50.83238 | -2.39142 | 22824 ft | 399 kts | 260° |
| 2026-04-10 10:43 | 50.82712 | -2.43453 | 23072 ft | 400 kts | 260° |
| 2026-04-10 10:43 | 50.82182 | -2.47776 | 23324 ft | 401 kts | 259° |
| 2026-04-10 10:43 | 50.81648 | -2.52106 | 23570 ft | 402 kts | 259° |
| 2026-04-10 10:44 | 50.81111 | -2.56455 | 23806 ft | 403 kts | 259° |
| 2026-04-10 10:44 | 50.80570 | -2.60821 | 24018 ft | 405 kts | 259° |
| 2026-04-10 10:44 | 50.80025 | -2.65206 | 24200 ft | 406 kts | 259° |
| 2026-04-10 10:44 | 50.79477 | -2.69604 | 24399 ft | 408 kts | 259° |
| 2026-04-10 10:45 | 50.78928 | -2.73997 | 24605 ft | 409 kts | 259° |
| 2026-04-10 10:45 | 50.78377 | -2.78384 | 24791 ft | 410 kts | 259° |
| 2026-04-10 10:45 | 50.77812 | -2.82875 | 24996 ft | 412 kts | 259° |
| 2026-04-10 10:45 | 50.77258 | -2.87266 | 25164 ft | 414 kts | 259° |
| 2026-04-10 10:46 | 50.76693 | -2.91723 | 25361 ft | 415 kts | 259° |
| 2026-04-10 10:46 | 50.76122 | -2.96216 | 25573 ft | 416 kts | 259° |
| 2026-04-10 10:46 | 50.75547 | -3.00713 | 25786 ft | 417 kts | 259° |
| 2026-04-10 10:46 | 50.74971 | -3.05213 | 25979 ft | 419 kts | 259° |
| 2026-04-10 10:47 | 50.74392 | -3.09727 | 26159 ft | 420 kts | 259° |
| 2026-04-10 10:47 | 50.73808 | -3.14256 | 26330 ft | 421 kts | 259° |
| 2026-04-10 10:47 | 50.73219 | -3.18807 | 26514 ft | 422 kts | 259° |
| 2026-04-10 10:47 | 50.72629 | -3.23359 | 26690 ft | 424 kts | 259° |
| 2026-04-10 10:48 | 50.72044 | -3.27859 | 26832 ft | 425 kts | 259° |
| 2026-04-10 10:48 | 50.71447 | -3.32439 | 27012 ft | 427 kts | 259° |
| 2026-04-10 10:48 | 50.70846 | -3.37027 | 27205 ft | 428 kts | 259° |
| 2026-04-10 10:48 | 50.70241 | -3.41635 | 27389 ft | 429 kts | 259° |
| 2026-04-10 10:49 | 50.69632 | -3.46249 | 27557 ft | 430 kts | 259° |
| 2026-04-10 10:49 | 50.69020 | -3.50882 | 27725 ft | 431 kts | 259° |
| 2026-04-10 10:49 | 50.68405 | -3.55512 | 27876 ft | 432 kts | 259° |
| 2026-04-10 10:49 | 50.67787 | -3.60161 | 28007 ft | 433 kts | 259° |
| 2026-04-10 10:50 | 50.67167 | -3.64810 | 28160 ft | 434 kts | 259° |
| 2026-04-10 10:50 | 50.66542 | -3.69477 | 28276 ft | 435 kts | 259° |
| 2026-04-10 10:50 | 50.65914 | -3.74146 | 28420 ft | 436 kts | 259° |
| 2026-04-10 10:50 | 50.65282 | -3.78845 | 28539 ft | 437 kts | 259° |
| 2026-04-10 10:51 | 50.64658 | -3.83456 | 28644 ft | 437 kts | 259° |
| 2026-04-10 10:51 | 50.64021 | -3.88152 | 28758 ft | 438 kts | 259° |
| 2026-04-10 10:51 | 50.63382 | -3.92847 | 28843 ft | 439 kts | 259° |
| 2026-04-10 10:52 | 50.62093 | -4.02261 | 29023 ft | 440 kts | 259° |
| 2026-04-10 10:52 | 50.60793 | -4.11703 | 29165 ft | 441 kts | 259° |
| 2026-04-10 10:53 | 50.59486 | -4.21136 | 29343 ft | 441 kts | 258° |
| 2026-04-10 10:53 | 50.58829 | -4.25854 | 29481 ft | 440 kts | 258° |
| 2026-04-10 10:53 | 50.58174 | -4.30543 | 29592 ft | 439 kts | 258° |
| 2026-04-10 10:54 | 50.56865 | -4.39869 | 29762 ft | 438 kts | 258° |
| 2026-04-10 10:54 | 50.55540 | -4.49244 | 29797 ft | 440 kts | 258° |
| 2026-04-10 10:55 | 50.54204 | -4.58648 | 29926 ft | 440 kts | 258° |
| 2026-04-10 10:55 | 50.52865 | -4.68034 | 30146 ft | 438 kts | 257° |
| 2026-04-10 10:55 | 50.52195 | -4.72701 | 30295 ft | 436 kts | 257° |
| 2026-04-10 10:56 | 50.51535 | -4.77281 | 30378 ft | 436 kts | 257° |
| 2026-04-10 10:56 | 50.50194 | -4.86543 | 30477 ft | 435 kts | 257° |
| 2026-04-10 10:57 | 50.48842 | -4.95820 | 30596 ft | 435 kts | 257° |
| 2026-04-10 10:57 | 50.47488 | -5.05066 | 30732 ft | 434 kts | 257° |
| 2026-04-10 10:58 | 50.46129 | -5.14287 | 30835 ft | 433 kts | 257° |
| 2026-04-10 10:58 | 50.44775 | -5.23425 | 30943 ft | 432 kts | 257° |
| 2026-04-10 10:59 | 50.43405 | -5.32609 | 31088 ft | 431 kts | 257° |
| 2026-04-10 10:59 | 50.42033 | -5.41756 | 31180 ft | 430 kts | 257° |
| 2026-04-10 11:00 | 50.40657 | -5.50885 | 31268 ft | 430 kts | 258° |
| 2026-04-10 11:00 | 50.39281 | -5.59983 | 31479 ft | 425 kts | 257° |
| 2026-04-10 11:00 | 50.38596 | -5.64479 | 31629 ft | 423 kts | 257° |
| 2026-04-10 11:01 | 50.37910 | -5.68954 | 31679 ft | 423 kts | 257° |
| 2026-04-10 11:01 | 50.36529 | -5.77944 | 31690 ft | 424 kts | 257° |
| 2026-04-10 11:02 | 50.35144 | -5.86910 | 31743 ft | 423 kts | 257° |
| 2026-04-10 11:02 | 50.33764 | -5.95807 | 31797 ft | 423 kts | 257° |
| 2026-04-10 11:03 | 50.32371 | -6.04749 | 31837 ft | 423 kts | 257° |
| 2026-04-10 11:03 | 50.30969 | -6.13688 | 31864 ft | 423 kts | 257° |
| 2026-04-10 11:04 | 50.29561 | -6.22609 | 31920 ft | 423 kts | 257° |
| 2026-04-10 11:04 | 50.28146 | -6.31528 | 31962 ft | 422 kts | 256° |
| 2026-04-10 11:05 | 50.26016 | -6.44875 | 32019 ft | 422 kts | 256° |
| 2026-04-10 11:05 | 50.24581 | -6.53804 | 31981 ft | 423 kts | 256° |
| 2026-04-10 11:06 | 50.23139 | -6.62726 | 31998 ft | 422 kts | 256° |
| 2026-04-10 11:06 | 50.21698 | -6.71597 | 31909 ft | 425 kts | 256° |
| 2026-04-10 11:07 | 50.20237 | -6.80542 | 31950 ft | 425 kts | 256° |
| 2026-04-10 11:07 | 50.18772 | -6.89468 | 31995 ft | 424 kts | 256° |
| 2026-04-10 11:08 | 50.17300 | -6.98390 | 31998 ft | 424 kts | 256° |
| 2026-04-10 11:08 | 50.15821 | -7.07305 | 32023 ft | 424 kts | 256° |
| 2026-04-10 11:09 | 50.14347 | -7.16144 | 32047 ft | 424 kts | 256° |
| 2026-04-10 11:09 | 50.12857 | -7.25030 | 32070 ft | 424 kts | 256° |
| 2026-04-10 11:10 | 50.11362 | -7.33903 | 32123 ft | 423 kts | 256° |
| 2026-04-10 11:10 | 50.10614 | -7.38325 | 32230 ft | 420 kts | 256° |
| 2026-04-10 11:10 | 50.09868 | -7.42721 | 32320 ft | 419 kts | 256° |
| 2026-04-10 11:11 | 50.08374 | -7.51490 | 32303 ft | 419 kts | 256° |
| 2026-04-10 11:11 | 50.06871 | -7.60279 | 32291 ft | 420 kts | 256° |
| 2026-04-10 11:12 | 50.05362 | -7.69061 | 32273 ft | 420 kts | 255° |
| 2026-04-10 11:12 | 50.03851 | -7.77804 | 32283 ft | 420 kts | 255° |
| 2026-04-10 11:13 | 50.02336 | -7.86523 | 32419 ft | 416 kts | 255° |
| 2026-04-10 11:13 | 50.00814 | -7.95228 | 32401 ft | 417 kts | 255° |
| 2026-04-10 11:14 | 49.99549 | -8.03976 | 32378 ft | 417 kts | 259° |
| 2026-04-10 11:14 | 49.98532 | -8.12851 | 32373 ft | 417 kts | 259° |
| 2026-04-10 11:15 | 49.97553 | -8.21723 | 32390 ft | 417 kts | 259° |
| 2026-04-10 11:15 | 49.96570 | -8.30552 | 32598 ft | 412 kts | 259° |
| 2026-04-10 11:16 | 49.95578 | -8.39313 | 32539 ft | 413 kts | 259° |
| 2026-04-10 11:16 | 49.94572 | -8.48105 | 32492 ft | 413 kts | 259° |
| 2026-04-10 11:17 | 49.93569 | -8.56830 | 32476 ft | 413 kts | 259° |
| 2026-04-10 11:17 | 49.92551 | -8.65617 | 32438 ft | 414 kts | 259° |
| 2026-04-10 11:18 | 49.91533 | -8.74371 | 32559 ft | 411 kts | 258° |
| 2026-04-10 11:18 | 49.90674 | -8.81682 | 32531 ft | 411 kts | 258° |
| 2026-04-10 11:19 | 49.89650 | -8.90350 | 32498 ft | 412 kts | 258° |
| 2026-04-10 11:19 | 49.88611 | -8.99085 | 32468 ft | 412 kts | 258° |
| 2026-04-10 11:20 | 49.87568 | -9.07809 | 32457 ft | 412 kts | 258° |
| 2026-04-10 11:20 | 49.86517 | -9.16537 | 32465 ft | 411 kts | 258° |
| 2026-04-10 11:21 | 49.85462 | -9.25239 | 32467 ft | 411 kts | 258° |
| 2026-04-10 11:21 | 49.84398 | -9.33951 | 32447 ft | 411 kts | 257° |
| 2026-04-10 11:22 | 49.83330 | -9.42640 | 32427 ft | 411 kts | 257° |
| 2026-04-10 11:22 | 49.82253 | -9.51351 | 32396 ft | 411 kts | 257° |
| 2026-04-10 11:23 | 49.81169 | -9.60063 | 32391 ft | 411 kts | 257° |
| 2026-04-10 11:23 | 49.80081 | -9.68764 | 32365 ft | 412 kts | 257° |
| 2026-04-10 11:24 | 49.78992 | -9.77406 | 32369 ft | 411 kts | 257° |
| 2026-04-10 11:24 | 49.77887 | -9.86101 | 32353 ft | 411 kts | 257° |
| 2026-04-10 11:25 | 49.76775 | -9.94795 | 32339 ft | 411 kts | 257° |
| 2026-04-10 11:25 | 49.75658 | -10.03501 | 32234 ft | 413 kts | 257° |
| 2026-04-10 11:26 | 49.74535 | -10.12200 | 32242 ft | 412 kts | 257° |
| 2026-04-10 11:26 | 49.73412 | -10.20841 | 32232 ft | 412 kts | 257° |
| 2026-04-10 11:27 | 49.72275 | -10.29526 | 32235 ft | 412 kts | 257° |
| 2026-04-10 11:27 | 49.71130 | -10.38212 | 32227 ft | 412 kts | 257° |
| 2026-04-10 11:28 | 49.69982 | -10.46886 | 32323 ft | 410 kts | 256° |
| 2026-04-10 11:28 | 49.68833 | -10.55495 | 32381 ft | 409 kts | 256° |
| 2026-04-10 11:29 | 49.67673 | -10.64114 | 32369 ft | 409 kts | 256° |
| 2026-04-10 11:29 | 49.66518 | -10.72667 | 32358 ft | 409 kts | 256° |
| 2026-04-10 11:30 | 49.65349 | -10.81274 | 32349 ft | 409 kts | 256° |
| 2026-04-10 11:30 | 49.64178 | -10.89860 | 32429 ft | 407 kts | 256° |
| 2026-04-10 11:31 | 49.63594 | -10.94119 | 32532 ft | 405 kts | 256° |
| 2026-04-10 11:31 | 49.63009 | -10.98370 | 32525 ft | 405 kts | 256° |
| 2026-04-10 11:31 | 49.61831 | -11.06889 | 32433 ft | 406 kts | 256° |
| 2026-04-10 11:32 | 49.60646 | -11.15410 | 32408 ft | 407 kts | 256° |
| 2026-04-10 11:32 | 49.59453 | -11.23947 | 32369 ft | 407 kts | 256° |
| 2026-04-10 11:33 | 49.58263 | -11.32415 | 32462 ft | 404 kts | 255° |
| 2026-04-10 11:33 | 49.57669 | -11.36632 | 32588 ft | 401 kts | 255° |
| 2026-04-10 11:33 | 49.57073 | -11.40838 | 32579 ft | 401 kts | 255° |
| 2026-04-10 11:34 | 49.55875 | -11.49253 | 32597 ft | 400 kts | 255° |
| 2026-04-10 11:34 | 49.55282 | -11.53414 | 32900 ft | 394 kts | 255° |
| 2026-04-10 11:34 | 49.54699 | -11.57498 | 33214 ft | 386 kts | 255° |
| 2026-04-10 11:35 | 49.54127 | -11.61496 | 33633 ft | 377 kts | 255° |
| 2026-04-10 11:35 | 49.53563 | -11.65420 | 33803 ft | 375 kts | 255° |
| 2026-04-10 11:35 | 49.52435 | -11.73197 | 33826 ft | 375 kts | 254° |
| 2026-04-10 11:36 | 49.51290 | -11.81052 | 33807 ft | 376 kts | 254° |
| 2026-04-10 11:36 | 49.50143 | -11.88908 | 33807 ft | 377 kts | 254° |
| 2026-04-10 11:37 | 49.48989 | -11.96778 | 33796 ft | 377 kts | 254° |
| 2026-04-10 11:37 | 49.47827 | -12.04662 | 33796 ft | 378 kts | 254° |
| 2026-04-10 11:38 | 49.46656 | -12.12563 | 33787 ft | 379 kts | 254° |
| 2026-04-10 11:38 | 49.45480 | -12.20469 | 33792 ft | 379 kts | 254° |
| 2026-04-10 11:39 | 49.44297 | -12.28375 | 33777 ft | 379 kts | 253° |
| 2026-04-10 11:39 | 49.43119 | -12.36204 | 33777 ft | 379 kts | 253° |
| 2026-04-10 11:40 | 49.41925 | -12.44097 | 33773 ft | 379 kts | 253° |
| 2026-04-10 11:40 | 49.40728 | -12.51976 | 33774 ft | 379 kts | 253° |
| 2026-04-10 11:41 | 49.39527 | -12.59841 | 33779 ft | 379 kts | 253° |
| 2026-04-10 11:41 | 49.38322 | -12.67696 | 33762 ft | 377 kts | 253° |
| 2026-04-10 11:42 | 49.37115 | -12.75528 | 33753 ft | 377 kts | 253° |
| 2026-04-10 11:42 | 49.35911 | -12.83296 | 33752 ft | 377 kts | 253° |
| 2026-04-10 11:43 | 49.34694 | -12.91109 | 33753 ft | 377 kts | 253° |
| 2026-04-10 11:43 | 49.33468 | -12.98948 | 33748 ft | 377 kts | 253° |
| 2026-04-10 11:44 | 49.32241 | -13.06760 | 33747 ft | 375 kts | 253° |
| 2026-04-10 11:44 | 49.31013 | -13.14528 | 33742 ft | 375 kts | 253° |
| 2026-04-10 11:45 | 49.29781 | -13.22287 | 33751 ft | 375 kts | 253° |
| 2026-04-10 11:45 | 49.28545 | -13.30037 | 33742 ft | 374 kts | 253° |
| 2026-04-10 11:46 | 49.27311 | -13.37736 | 33744 ft | 375 kts | 253° |
| 2026-04-10 11:46 | 49.26064 | -13.45487 | 33751 ft | 375 kts | 252° |
| 2026-04-10 11:47 | 49.24816 | -13.53220 | 33731 ft | 373 kts | 252° |
| 2026-04-10 11:47 | 49.23563 | -13.60925 | 33731 ft | 373 kts | 252° |
| 2026-04-10 11:48 | 49.22302 | -13.68639 | 33738 ft | 374 kts | 252° |
| 2026-04-10 11:48 | 49.21039 | -13.76344 | 33718 ft | 373 kts | 252° |
| 2026-04-10 11:49 | 49.19777 | -13.84010 | 33716 ft | 373 kts | 252° |
| 2026-04-10 11:49 | 49.18504 | -13.91706 | 33736 ft | 373 kts | 252° |
| 2026-04-10 11:50 | 49.17218 | -13.99440 | 33732 ft | 373 kts | 252° |
| 2026-04-10 11:50 | 49.15942 | -14.07082 | 33714 ft | 374 kts | 252° |
| 2026-04-10 11:51 | 49.14652 | -14.14778 | 33716 ft | 373 kts | 252° |
| 2026-04-10 11:51 | 49.13358 | -14.22455 | 33726 ft | 374 kts | 252° |
| 2026-04-10 11:52 | 49.12058 | -14.30145 | 33726 ft | 374 kts | 252° |
| 2026-04-10 11:52 | 49.10755 | -14.37828 | 33714 ft | 374 kts | 252° |
| 2026-04-10 11:53 | 49.09444 | -14.45501 | 33716 ft | 374 kts | 252° |
| 2026-04-10 11:53 | 49.08126 | -14.53182 | 33716 ft | 374 kts | 251° |
| 2026-04-10 11:54 | 49.06804 | -14.60853 | 33716 ft | 374 kts | 251° |
| 2026-04-10 11:54 | 49.05486 | -14.68471 | 33716 ft | 374 kts | 251° |
| 2026-04-10 11:55 | 49.04151 | -14.76161 | 33717 ft | 375 kts | 251° |
| 2026-04-10 11:55 | 49.02807 | -14.83861 | 33715 ft | 377 kts | 251° |
| 2026-04-10 11:56 | 49.01454 | -14.91585 | 33713 ft | 377 kts | 251° |
| 2026-04-10 11:56 | 49.00095 | -14.99309 | 33716 ft | 377 kts | 251° |
| 2026-04-10 11:57 | 48.98747 | -15.06976 | 33716 ft | 377 kts | 251° |
| 2026-04-10 11:57 | 48.97393 | -15.14693 | 33718 ft | 377 kts | 251° |
| 2026-04-10 11:58 | 48.96031 | -15.22414 | 33716 ft | 378 kts | 250° |
| 2026-04-10 11:58 | 48.94656 | -15.30131 | 33720 ft | 377 kts | 251° |
| 2026-04-10 11:59 | 48.93286 | -15.37817 | 33727 ft | 376 kts | 251° |
| 2026-04-10 11:59 | 48.91914 | -15.45516 | 33730 ft | 377 kts | 251° |
| 2026-04-10 12:00 | 48.90548 | -15.53150 | 33761 ft | 377 kts | 251° |
| 2026-04-10 12:00 | 48.89162 | -15.60840 | 33734 ft | 377 kts | 251° |
| 2026-04-10 12:01 | 48.87764 | -15.68549 | 33733 ft | 378 kts | 251° |
| 2026-04-10 12:01 | 48.86363 | -15.76250 | 33733 ft | 378 kts | 251° |
| 2026-04-10 12:02 | 48.84958 | -15.83939 | 33735 ft | 378 kts | 250° |
| 2026-04-10 12:02 | 48.83557 | -15.91582 | 33735 ft | 378 kts | 250° |
| 2026-04-10 12:03 | 48.82142 | -15.99268 | 33744 ft | 378 kts | 250° |
| 2026-04-10 12:03 | 48.80722 | -16.06940 | 33744 ft | 377 kts | 250° |
| 2026-04-10 12:04 | 48.79296 | -16.14614 | 33746 ft | 377 kts | 250° |
| 2026-04-10 12:04 | 48.77868 | -16.22271 | 33746 ft | 377 kts | 250° |
| 2026-04-10 12:05 | 48.76432 | -16.29939 | 33754 ft | 378 kts | 250° |
| 2026-04-10 12:05 | 48.75237 | -16.36297 | 33762 ft | 378 kts | 250° |
| 2026-04-10 12:06 | 48.73559 | -16.45188 | 33761 ft | 377 kts | 250° |
| 2026-04-10 12:06 | 48.72114 | -16.52812 | 33761 ft | 377 kts | 250° |
| 2026-04-10 12:07 | 48.70169 | -16.63021 | 33767 ft | 377 kts | 250° |
| 2026-04-10 12:08 | 48.68721 | -16.70585 | 33768 ft | 377 kts | 250° |
| 2026-04-10 12:08 | 48.67257 | -16.78204 | 33764 ft | 376 kts | 250° |
| 2026-04-10 12:09 | 48.65794 | -16.85792 | 33770 ft | 375 kts | 250° |
| 2026-04-10 12:09 | 48.64326 | -16.93371 | 33777 ft | 375 kts | 250° |
| 2026-04-10 12:10 | 48.62856 | -17.00931 | 33774 ft | 375 kts | 250° |
| 2026-04-10 12:10 | 48.61378 | -17.08501 | 33784 ft | 375 kts | 250° |
| 2026-04-10 12:11 | 48.59898 | -17.16049 | 33810 ft | 375 kts | 250° |
| 2026-04-10 12:11 | 48.58410 | -17.23610 | 33782 ft | 374 kts | 250° |
| 2026-04-10 12:12 | 48.56934 | -17.31084 | 33785 ft | 374 kts | 250° |
| 2026-04-10 12:12 | 48.55442 | -17.38608 | 33788 ft | 374 kts | 250° |
| 2026-04-10 12:13 | 48.53942 | -17.46146 | 33794 ft | 374 kts | 250° |
| 2026-04-10 12:13 | 48.52438 | -17.53671 | 33793 ft | 374 kts | 250° |
| 2026-04-10 12:14 | 48.50942 | -17.61121 | 33806 ft | 373 kts | 250° |
| 2026-04-10 12:14 | 48.49437 | -17.68601 | 33802 ft | 372 kts | 250° |
| 2026-04-10 12:15 | 48.47926 | -17.76080 | 33805 ft | 372 kts | 250° |
| 2026-04-10 12:15 | 48.46411 | -17.83545 | 33800 ft | 372 kts | 250° |
| 2026-04-10 12:16 | 48.44892 | -17.91002 | 33813 ft | 372 kts | 250° |
| 2026-04-10 12:16 | 48.43367 | -17.98463 | 33810 ft | 372 kts | 250° |
| 2026-04-10 12:17 | 48.41839 | -18.05908 | 33814 ft | 372 kts | 250° |
| 2026-04-10 12:17 | 48.40306 | -18.13352 | 33821 ft | 372 kts | 250° |
| 2026-04-10 12:18 | 48.38768 | -18.20790 | 33827 ft | 372 kts | 250° |
| 2026-04-10 12:18 | 48.37227 | -18.28218 | 33829 ft | 372 kts | 250° |
| 2026-04-10 12:19 | 48.35689 | -18.35603 | 33870 ft | 372 kts | 250° |
| 2026-04-10 12:19 | 48.34138 | -18.43018 | 33835 ft | 371 kts | 250° |
| 2026-04-10 12:20 | 48.32587 | -18.50412 | 33837 ft | 371 kts | 250° |
| 2026-04-10 12:20 | 48.31029 | -18.57813 | 33842 ft | 372 kts | 250° |
| 2026-04-10 12:21 | 48.29462 | -18.65223 | 33845 ft | 373 kts | 250° |
| 2026-04-10 12:21 | 48.27888 | -18.72647 | 33850 ft | 373 kts | 250° |
| 2026-04-10 12:22 | 48.26308 | -18.80064 | 33848 ft | 375 kts | 250° |
| 2026-04-10 12:22 | 48.24715 | -18.87520 | 33856 ft | 375 kts | 250° |
| 2026-04-10 12:23 | 48.23114 | -18.94991 | 33854 ft | 376 kts | 250° |
| 2026-04-10 12:23 | 48.21507 | -19.02457 | 33872 ft | 376 kts | 250° |
| 2026-04-10 12:24 | 48.19894 | -19.09921 | 33861 ft | 376 kts | 250° |
| 2026-04-10 12:24 | 48.18276 | -19.17384 | 33872 ft | 377 kts | 250° |
| 2026-04-10 12:25 | 48.16653 | -19.24845 | 33872 ft | 377 kts | 250° |
| 2026-04-10 12:25 | 48.15035 | -19.32257 | 33873 ft | 377 kts | 250° |
| 2026-04-10 12:26 | 48.13390 | -19.39761 | 33873 ft | 377 kts | 250° |
| 2026-04-10 12:26 | 48.11762 | -19.47161 | 33886 ft | 377 kts | 250° |
| 2026-04-10 12:27 | 48.10116 | -19.54620 | 33910 ft | 377 kts | 250° |
| 2026-04-10 12:27 | 48.08462 | -19.62085 | 33897 ft | 378 kts | 250° |
| 2026-04-10 12:28 | 48.06802 | -19.69552 | 33894 ft | 379 kts | 250° |
| 2026-04-10 12:28 | 48.05135 | -19.77025 | 33900 ft | 379 kts | 250° |
| 2026-04-10 12:29 | 48.03461 | -19.84501 | 33902 ft | 379 kts | 250° |
| 2026-04-10 12:29 | 48.01782 | -19.91973 | 33900 ft | 379 kts | 249° |
| 2026-04-10 12:30 | 48.00106 | -19.99401 | 33914 ft | 379 kts | 250° |
| 2026-04-10 12:30 | 47.98368 | -20.06840 | 33914 ft | 380 kts | 249° |
| 2026-04-10 12:31 | 47.96545 | -20.14245 | 33921 ft | 380 kts | 249° |
| 2026-04-10 12:31 | 47.94717 | -20.21652 | 33919 ft | 380 kts | 249° |
| 2026-04-10 12:32 | 47.92900 | -20.29059 | 33932 ft | 380 kts | 249° |
| 2026-04-10 12:32 | 47.91079 | -20.36439 | 33927 ft | 379 kts | 250° |
| 2026-04-10 12:33 | 47.89268 | -20.43808 | 33938 ft | 379 kts | 250° |
| 2026-04-10 12:33 | 47.87454 | -20.51179 | 33938 ft | 379 kts | 250° |
| 2026-04-10 12:34 | 47.85646 | -20.58490 | 33950 ft | 379 kts | 249° |
| 2026-04-10 12:34 | 47.83814 | -20.65865 | 33949 ft | 379 kts | 249° |
| 2026-04-10 12:35 | 47.81976 | -20.73230 | 33955 ft | 380 kts | 250° |
| 2026-04-10 12:35 | 47.80132 | -20.80601 | 33958 ft | 380 kts | 249° |
| 2026-04-10 12:36 | 47.78282 | -20.87970 | 33966 ft | 380 kts | 249° |
| 2026-04-10 12:36 | 47.76438 | -20.95294 | 33966 ft | 380 kts | 249° |
| 2026-04-10 12:37 | 47.74577 | -21.02661 | 33975 ft | 381 kts | 249° |
| 2026-04-10 12:37 | 47.72711 | -21.10024 | 33979 ft | 380 kts | 250° |
| 2026-04-10 12:38 | 47.70841 | -21.17376 | 33983 ft | 380 kts | 250° |
| 2026-04-10 12:38 | 47.68967 | -21.24724 | 33994 ft | 380 kts | 250° |
| 2026-04-10 12:39 | 47.67087 | -21.32069 | 33992 ft | 380 kts | 250° |
| 2026-04-10 12:39 | 47.65215 | -21.39362 | 33994 ft | 380 kts | 250° |
| 2026-04-10 12:40 | 47.63325 | -21.46697 | 34007 ft | 381 kts | 250° |
| 2026-04-10 12:40 | 47.61429 | -21.54031 | 34001 ft | 381 kts | 250° |
| 2026-04-10 12:41 | 47.59530 | -21.61361 | 34001 ft | 381 kts | 250° |
| 2026-04-10 12:41 | 47.57624 | -21.68693 | 34001 ft | 381 kts | 250° |
| 2026-04-10 12:42 | 47.55714 | -21.76015 | 34011 ft | 381 kts | 250° |
| 2026-04-10 12:42 | 47.53800 | -21.83329 | 34009 ft | 381 kts | 250° |
| 2026-04-10 12:43 | 47.51879 | -21.90647 | 34020 ft | 381 kts | 250° |
| 2026-04-10 12:43 | 47.49966 | -21.97911 | 34020 ft | 381 kts | 250° |
| 2026-04-10 12:44 | 47.48038 | -22.05212 | 34030 ft | 381 kts | 250° |
| 2026-04-10 12:44 | 47.46103 | -22.12513 | 34029 ft | 381 kts | 250° |
| 2026-04-10 12:45 | 47.44163 | -22.19809 | 34041 ft | 382 kts | 250° |
| 2026-04-10 12:45 | 47.42215 | -22.27109 | 34034 ft | 382 kts | 250° |
| 2026-04-10 12:46 | 47.40266 | -22.34400 | 34044 ft | 382 kts | 250° |
| 2026-04-10 12:46 | 47.38309 | -22.41696 | 34045 ft | 382 kts | 250° |
| 2026-04-10 12:47 | 47.36348 | -22.48982 | 34057 ft | 382 kts | 250° |
| 2026-04-10 12:47 | 47.34394 | -22.56217 | 34030 ft | 382 kts | 250° |
| 2026-04-10 12:48 | 47.32422 | -22.63487 | 34062 ft | 382 kts | 250° |
| 2026-04-10 12:48 | 47.30447 | -22.70764 | 34061 ft | 382 kts | 250° |
| 2026-04-10 12:49 | 47.28467 | -22.78036 | 34072 ft | 383 kts | 250° |
| 2026-04-10 12:49 | 47.26476 | -22.85321 | 34072 ft | 383 kts | 250° |
| 2026-04-10 12:50 | 47.24493 | -22.92555 | 34078 ft | 383 kts | 250° |
| 2026-04-10 12:50 | 47.22490 | -22.99833 | 34078 ft | 384 kts | 251° |
| 2026-04-10 12:51 | 47.20483 | -23.07112 | 34087 ft | 384 kts | 251° |
| 2026-04-10 12:51 | 47.18472 | -23.14383 | 34086 ft | 384 kts | 250° |
| 2026-04-10 12:52 | 47.16449 | -23.21671 | 34094 ft | 385 kts | 250° |
| 2026-04-10 12:52 | 47.14422 | -23.28951 | 34064 ft | 385 kts | 251° |
| 2026-04-10 12:53 | 47.12395 | -23.36207 | 34101 ft | 385 kts | 251° |
| 2026-04-10 12:53 | 47.10704 | -23.42249 | 34101 ft | 385 kts | 251° |
| 2026-04-10 12:54 | 47.08666 | -23.49511 | 34102 ft | 385 kts | 251° |
| 2026-04-10 12:54 | 47.06615 | -23.56793 | 34109 ft | 386 kts | 251° |
| 2026-04-10 12:55 | 47.04562 | -23.64062 | 34124 ft | 386 kts | 251° |
| 2026-04-10 12:55 | 47.02500 | -23.71331 | 34114 ft | 386 kts | 251° |
| 2026-04-10 12:56 | 47.00434 | -23.78604 | 34129 ft | 387 kts | 251° |
| 2026-04-10 12:56 | 46.98374 | -23.85835 | 34128 ft | 387 kts | 251° |
| 2026-04-10 12:57 | 46.96314 | -23.93057 | 34134 ft | 383 kts | 251° |
| 2026-04-10 12:57 | 46.94253 | -24.00238 | 34134 ft | 382 kts | 251° |
| 2026-04-10 12:58 | 46.92188 | -24.07411 | 34141 ft | 382 kts | 251° |
| 2026-04-10 12:58 | 46.90127 | -24.14557 | 34143 ft | 381 kts | 251° |
| 2026-04-10 12:59 | 46.88063 | -24.21695 | 34154 ft | 381 kts | 251° |
| 2026-04-10 12:59 | 46.85994 | -24.28825 | 34151 ft | 381 kts | 251° |
| 2026-04-10 13:00 | 46.83920 | -24.35954 | 34144 ft | 381 kts | 251° |
| 2026-04-10 13:00 | 46.81842 | -24.43064 | 34160 ft | 380 kts | 251° |
| 2026-04-10 13:01 | 46.79784 | -24.50102 | 34165 ft | 380 kts | 251° |
| 2026-04-10 13:01 | 46.77702 | -24.57202 | 34164 ft | 380 kts | 251° |
| 2026-04-10 13:02 | 46.75619 | -24.64280 | 34174 ft | 380 kts | 251° |
| 2026-04-10 13:02 | 46.73527 | -24.71368 | 34159 ft | 380 kts | 251° |
| 2026-04-10 13:03 | 46.71434 | -24.78435 | 34173 ft | 379 kts | 251° |
| 2026-04-10 13:03 | 46.69353 | -24.85448 | 34173 ft | 379 kts | 251° |
| 2026-04-10 13:04 | 46.67255 | -24.92496 | 34184 ft | 379 kts | 251° |
| 2026-04-10 13:04 | 46.65150 | -24.99549 | 34181 ft | 379 kts | 251° |
| 2026-04-10 13:05 | 46.63046 | -25.06576 | 34172 ft | 379 kts | 251° |
| 2026-04-10 13:05 | 46.60931 | -25.13617 | 34182 ft | 379 kts | 251° |
| 2026-04-10 13:06 | 46.58819 | -25.20634 | 34191 ft | 379 kts | 251° |
| 2026-04-10 13:06 | 46.56703 | -25.27644 | 34195 ft | 378 kts | 251° |
| 2026-04-10 13:07 | 46.54594 | -25.34609 | 34183 ft | 378 kts | 251° |
| 2026-04-10 13:07 | 46.52469 | -25.41609 | 34203 ft | 378 kts | 251° |
| 2026-04-10 13:08 | 46.50342 | -25.48595 | 34188 ft | 378 kts | 251° |
| 2026-04-10 13:08 | 46.48210 | -25.55579 | 34207 ft | 378 kts | 251° |
| 2026-04-10 13:09 | 46.45004 | -25.66043 | 34192 ft | 379 kts | 251° |
| 2026-04-10 13:09 | 46.42855 | -25.73032 | 34211 ft | 379 kts | 251° |
| 2026-04-10 13:10 | 46.40723 | -25.79943 | 34209 ft | 378 kts | 251° |
| 2026-04-10 13:10 | 46.38571 | -25.86907 | 34207 ft | 378 kts | 251° |
| 2026-04-10 13:11 | 46.36416 | -25.93860 | 34214 ft | 378 kts | 251° |
| 2026-04-10 13:11 | 46.34255 | -26.00815 | 34214 ft | 378 kts | 251° |
| 2026-04-10 13:12 | 46.32092 | -26.07755 | 34226 ft | 378 kts | 251° |
| 2026-04-10 13:12 | 46.29928 | -26.14675 | 34221 ft | 377 kts | 251° |
| 2026-04-10 13:13 | 46.27763 | -26.21584 | 34228 ft | 377 kts | 251° |
| 2026-04-10 13:13 | 46.25608 | -26.28442 | 34227 ft | 377 kts | 251° |
| 2026-04-10 13:14 | 46.23436 | -26.35337 | 34236 ft | 377 kts | 251° |
| 2026-04-10 13:14 | 46.21260 | -26.42227 | 34234 ft | 377 kts | 251° |
| 2026-04-10 13:15 | 46.19080 | -26.49104 | 34244 ft | 377 kts | 251° |
| 2026-04-10 13:15 | 46.16898 | -26.55977 | 34246 ft | 377 kts | 251° |
| 2026-04-10 13:16 | 46.14711 | -26.62845 | 34252 ft | 376 kts | 251° |
| 2026-04-10 13:16 | 46.12522 | -26.69699 | 34251 ft | 376 kts | 251° |
| 2026-04-10 13:17 | 46.10326 | -26.76557 | 34257 ft | 377 kts | 251° |
| 2026-04-10 13:17 | 46.08129 | -26.83398 | 34260 ft | 376 kts | 251° |
| 2026-04-10 13:18 | 46.05928 | -26.90239 | 34262 ft | 376 kts | 251° |
| 2026-04-10 13:18 | 46.03735 | -26.97035 | 34268 ft | 376 kts | 251° |
| 2026-04-10 13:19 | 46.01522 | -27.03874 | 34268 ft | 377 kts | 251° |
| 2026-04-10 13:19 | 45.99304 | -27.10708 | 34219 ft | 376 kts | 251° |
| 2026-04-10 13:20 | 45.97088 | -27.17518 | 34277 ft | 376 kts | 251° |
| 2026-04-10 13:20 | 45.94871 | -27.24321 | 34281 ft | 376 kts | 250° |
| 2026-04-10 13:21 | 45.92647 | -27.31123 | 34276 ft | 376 kts | 250° |
| 2026-04-10 13:21 | 45.90430 | -27.37883 | 34290 ft | 377 kts | 250° |
| 2026-04-10 13:22 | 45.88191 | -27.44690 | 34256 ft | 377 kts | 250° |
| 2026-04-10 13:22 | 45.85948 | -27.51494 | 34296 ft | 377 kts | 250° |
| 2026-04-10 13:23 | 45.83700 | -27.58300 | 34295 ft | 378 kts | 250° |
| 2026-04-10 13:23 | 45.81444 | -27.65108 | 34297 ft | 379 kts | 250° |
| 2026-04-10 13:24 | 45.79178 | -27.71932 | 34300 ft | 379 kts | 250° |
| 2026-04-10 13:24 | 45.76906 | -27.78751 | 34294 ft | 379 kts | 250° |
| 2026-04-10 13:25 | 45.74626 | -27.85580 | 34304 ft | 380 kts | 250° |
| 2026-04-10 13:25 | 45.72343 | -27.92401 | 34307 ft | 381 kts | 250° |
| 2026-04-10 13:26 | 45.70063 | -27.99196 | 34325 ft | 381 kts | 250° |
| 2026-04-10 13:26 | 45.67759 | -28.06040 | 34320 ft | 381 kts | 250° |
| 2026-04-10 13:27 | 45.65453 | -28.12873 | 34322 ft | 382 kts | 250° |
| 2026-04-10 13:27 | 45.63139 | -28.19717 | 34326 ft | 383 kts | 250° |
| 2026-04-10 13:28 | 45.60818 | -28.26559 | 34324 ft | 383 kts | 250° |
| 2026-04-10 13:28 | 45.58489 | -28.33411 | 34334 ft | 384 kts | 250° |
| 2026-04-10 13:29 | 45.56152 | -28.40266 | 34332 ft | 384 kts | 250° |
| 2026-04-10 13:29 | 45.53828 | -28.47063 | 34340 ft | 384 kts | 250° |
| 2026-04-10 13:30 | 45.51479 | -28.53919 | 34341 ft | 385 kts | 250° |
| 2026-04-10 13:30 | 45.49119 | -28.60791 | 34341 ft | 386 kts | 250° |
| 2026-04-10 13:31 | 45.46748 | -28.67675 | 34344 ft | 387 kts | 250° |
| 2026-04-10 13:31 | 45.44376 | -28.74545 | 34347 ft | 387 kts | 250° |
| 2026-04-10 13:32 | 45.41994 | -28.81425 | 34353 ft | 387 kts | 250° |
| 2026-04-10 13:32 | 45.39605 | -28.88306 | 34351 ft | 388 kts | 250° |
| 2026-04-10 13:33 | 45.37209 | -28.95190 | 34356 ft | 388 kts | 250° |
| 2026-04-10 13:33 | 45.34827 | -29.02018 | 34355 ft | 388 kts | 250° |
| 2026-04-10 13:34 | 45.32424 | -29.08886 | 34363 ft | 388 kts | 250° |
| 2026-04-10 13:34 | 45.30014 | -29.15760 | 34365 ft | 389 kts | 250° |
| 2026-04-10 13:35 | 45.27596 | -29.22640 | 34368 ft | 389 kts | 250° |
| 2026-04-10 13:35 | 45.25167 | -29.29530 | 34368 ft | 390 kts | 250° |
| 2026-04-10 13:36 | 45.22735 | -29.36412 | 34376 ft | 391 kts | 250° |
| 2026-04-10 13:36 | 45.20312 | -29.43251 | 34377 ft | 391 kts | 250° |
| 2026-04-10 13:37 | 45.17865 | -29.50142 | 34382 ft | 392 kts | 250° |
| 2026-04-10 13:37 | 45.15405 | -29.57051 | 34390 ft | 393 kts | 250° |
| 2026-04-10 13:38 | 45.12938 | -29.63962 | 34390 ft | 394 kts | 250° |
| 2026-04-10 13:38 | 45.10464 | -29.70873 | 34389 ft | 394 kts | 249° |
| 2026-04-10 13:39 | 45.07975 | -29.77809 | 34396 ft | 395 kts | 249° |
| 2026-04-10 13:39 | 45.05480 | -29.84746 | 34398 ft | 396 kts | 249° |
| 2026-04-10 13:40 | 45.02973 | -29.91695 | 34398 ft | 397 kts | 249° |
| 2026-04-10 13:40 | 45.00876 | -29.97483 | 34404 ft | 398 kts | 248° |
| 2026-04-10 13:41 | 44.97874 | -30.04162 | 34406 ft | 404 kts | 243° |
| 2026-04-10 13:41 | 44.94086 | -30.11723 | 34397 ft | 407 kts | 242° |
| 2026-04-10 13:42 | 44.91314 | -30.17156 | 34414 ft | 407 kts | 242° |
| 2026-04-10 13:42 | 44.88016 | -30.23620 | 34414 ft | 409 kts | 242° |
| 2026-04-10 13:43 | 44.84694 | -30.30142 | 34429 ft | 409 kts | 242° |
| 2026-04-10 13:43 | 44.81367 | -30.36668 | 34429 ft | 410 kts | 242° |
| 2026-04-10 13:44 | 44.78026 | -30.43206 | 34414 ft | 411 kts | 242° |
| 2026-04-10 13:44 | 44.74700 | -30.49701 | 34433 ft | 412 kts | 242° |
| 2026-04-10 13:45 | 44.71339 | -30.56248 | 34407 ft | 413 kts | 241° |
| 2026-04-10 13:45 | 44.67973 | -30.62789 | 34437 ft | 413 kts | 241° |
| 2026-04-10 13:46 | 44.64598 | -30.69334 | 34438 ft | 414 kts | 241° |
| 2026-04-10 13:46 | 44.61211 | -30.75886 | 34443 ft | 415 kts | 241° |
| 2026-04-10 13:47 | 44.57814 | -30.82444 | 34410 ft | 415 kts | 241° |
| 2026-04-10 13:47 | 44.54438 | -30.88945 | 34450 ft | 415 kts | 241° |
| 2026-04-10 13:48 | 44.51035 | -30.95485 | 34452 ft | 416 kts | 241° |
| 2026-04-10 13:48 | 44.47620 | -31.02034 | 34451 ft | 416 kts | 241° |
| 2026-04-10 13:49 | 44.44195 | -31.08585 | 34460 ft | 417 kts | 241° |
| 2026-04-10 13:49 | 44.40769 | -31.15125 | 34465 ft | 417 kts | 241° |
| 2026-04-10 13:50 | 44.37332 | -31.21669 | 34466 ft | 417 kts | 241° |
| 2026-04-10 13:50 | 44.33891 | -31.28206 | 34469 ft | 418 kts | 240° |
| 2026-04-10 13:51 | 44.30440 | -31.34749 | 34469 ft | 418 kts | 240° |
| 2026-04-10 13:51 | 44.27007 | -31.41241 | 34472 ft | 418 kts | 240° |
| 2026-04-10 13:52 | 44.23548 | -31.47771 | 34473 ft | 419 kts | 240° |
| 2026-04-10 13:52 | 44.20081 | -31.54299 | 34472 ft | 419 kts | 240° |
| 2026-04-10 13:53 | 44.16610 | -31.60821 | 34481 ft | 419 kts | 240° |
| 2026-04-10 13:53 | 44.13130 | -31.67344 | 34480 ft | 419 kts | 240° |
| 2026-04-10 13:54 | 44.09648 | -31.73856 | 34481 ft | 420 kts | 240° |
| 2026-04-10 13:54 | 44.06150 | -31.80384 | 34487 ft | 420 kts | 240° |
| 2026-04-10 13:55 | 44.02655 | -31.86891 | 34488 ft | 420 kts | 240° |
| 2026-04-10 13:55 | 43.99178 | -31.93351 | 34509 ft | 420 kts | 240° |
| 2026-04-10 13:56 | 43.95676 | -31.99841 | 34492 ft | 420 kts | 240° |
| 2026-04-10 13:56 | 43.92171 | -32.06325 | 34490 ft | 420 kts | 240° |
| 2026-04-10 13:57 | 43.88662 | -32.12797 | 34501 ft | 419 kts | 240° |
| 2026-04-10 13:57 | 43.85160 | -32.19245 | 34498 ft | 418 kts | 240° |
| 2026-04-10 13:58 | 43.81657 | -32.25683 | 34506 ft | 418 kts | 240° |
| 2026-04-10 13:58 | 43.78151 | -32.32112 | 34506 ft | 418 kts | 240° |
| 2026-04-10 13:59 | 43.74666 | -32.38488 | 34507 ft | 418 kts | 240° |
| 2026-04-10 13:59 | 43.71154 | -32.44894 | 34506 ft | 417 kts | 240° |
| 2026-04-10 14:00 | 43.67652 | -32.51272 | 34511 ft | 416 kts | 240° |
| 2026-04-10 14:00 | 43.64147 | -32.57643 | 34514 ft | 416 kts | 240° |
| 2026-04-10 14:01 | 43.60640 | -32.64004 | 34515 ft | 416 kts | 240° |
| 2026-04-10 14:01 | 43.57128 | -32.70359 | 34516 ft | 416 kts | 240° |
| 2026-04-10 14:02 | 43.53619 | -32.76695 | 34519 ft | 415 kts | 240° |
| 2026-04-10 14:02 | 43.50128 | -32.82984 | 34521 ft | 415 kts | 240° |
| 2026-04-10 14:03 | 43.46613 | -32.89303 | 34522 ft | 415 kts | 240° |
| 2026-04-10 14:03 | 43.43102 | -32.95603 | 34524 ft | 414 kts | 240° |
| 2026-04-10 14:04 | 43.39588 | -33.01891 | 34517 ft | 414 kts | 240° |
| 2026-04-10 14:05 | 43.34318 | -33.11300 | 34532 ft | 414 kts | 240° |
| 2026-04-10 14:05 | 43.30794 | -33.17575 | 34527 ft | 414 kts | 240° |
| 2026-04-10 14:06 | 43.27273 | -33.23832 | 34535 ft | 414 kts | 240° |
| 2026-04-10 14:06 | 43.23742 | -33.30092 | 34535 ft | 415 kts | 240° |
| 2026-04-10 14:07 | 43.20209 | -33.36344 | 34541 ft | 415 kts | 240° |
| 2026-04-10 14:07 | 43.16693 | -33.42551 | 34539 ft | 414 kts | 240° |
| 2026-04-10 14:08 | 43.13151 | -33.48790 | 34546 ft | 415 kts | 240° |
| 2026-04-10 14:08 | 43.09610 | -33.55017 | 34548 ft | 415 kts | 240° |
| 2026-04-10 14:09 | 43.06057 | -33.61250 | 34550 ft | 415 kts | 240° |
| 2026-04-10 14:09 | 43.02504 | -33.67471 | 34548 ft | 415 kts | 239° |
| 2026-04-10 14:10 | 42.98950 | -33.73680 | 34555 ft | 415 kts | 239° |
| 2026-04-10 14:10 | 42.95411 | -33.79848 | 34557 ft | 415 kts | 239° |
| 2026-04-10 14:11 | 42.91843 | -33.86055 | 34561 ft | 415 kts | 239° |
| 2026-04-10 14:11 | 42.88273 | -33.92252 | 34558 ft | 415 kts | 239° |
| 2026-04-10 14:12 | 42.84695 | -33.98453 | 34557 ft | 416 kts | 239° |
| 2026-04-10 14:12 | 42.81100 | -34.04669 | 34559 ft | 418 kts | 239° |
| 2026-04-10 14:13 | 42.77497 | -34.10885 | 34566 ft | 419 kts | 239° |
| 2026-04-10 14:13 | 42.73883 | -34.17105 | 34558 ft | 419 kts | 239° |
| 2026-04-10 14:14 | 42.70276 | -34.23302 | 34564 ft | 420 kts | 239° |
| 2026-04-10 14:14 | 42.66650 | -34.29517 | 34571 ft | 420 kts | 239° |
| 2026-04-10 14:15 | 42.63016 | -34.35734 | 34567 ft | 420 kts | 239° |
| 2026-04-10 14:15 | 42.59376 | -34.41948 | 34573 ft | 420 kts | 238° |
| 2026-04-10 14:16 | 42.55728 | -34.48163 | 34578 ft | 421 kts | 238° |
| 2026-04-10 14:16 | 42.52078 | -34.54368 | 34575 ft | 421 kts | 238° |
| 2026-04-10 14:17 | 42.48421 | -34.60572 | 34564 ft | 421 kts | 238° |
| 2026-04-10 14:17 | 42.44764 | -34.66766 | 34576 ft | 421 kts | 238° |
| 2026-04-10 14:18 | 42.41091 | -34.72972 | 34575 ft | 422 kts | 238° |
| 2026-04-10 14:18 | 42.37440 | -34.79121 | 34562 ft | 421 kts | 238° |
| 2026-04-10 14:19 | 42.33765 | -34.85299 | 34575 ft | 423 kts | 238° |
| 2026-04-10 14:19 | 42.30071 | -34.91506 | 34581 ft | 424 kts | 238° |
| 2026-04-10 14:20 | 42.26362 | -34.97726 | 34583 ft | 425 kts | 238° |
| 2026-04-10 14:20 | 42.22647 | -35.03937 | 34583 ft | 426 kts | 238° |
| 2026-04-10 14:21 | 42.18913 | -35.10167 | 34582 ft | 426 kts | 238° |
| 2026-04-10 14:21 | 42.15173 | -35.16395 | 34586 ft | 427 kts | 238° |
| 2026-04-10 14:22 | 42.11451 | -35.22579 | 34588 ft | 428 kts | 238° |
| 2026-04-10 14:22 | 42.07699 | -35.28799 | 34587 ft | 428 kts | 238° |
| 2026-04-10 14:23 | 42.03942 | -35.35015 | 34593 ft | 428 kts | 238° |
| 2026-04-10 14:23 | 42.00177 | -35.41233 | 34587 ft | 429 kts | 238° |
| 2026-04-10 14:24 | 41.96405 | -35.47450 | 34592 ft | 429 kts | 238° |
| 2026-04-10 14:24 | 41.92620 | -35.53674 | 34593 ft | 430 kts | 238° |
| 2026-04-10 14:25 | 41.88832 | -35.59891 | 34600 ft | 430 kts | 237° |
| 2026-04-10 14:25 | 41.85039 | -35.66100 | 34600 ft | 431 kts | 238° |
| 2026-04-10 14:26 | 41.81233 | -35.72320 | 34598 ft | 432 kts | 238° |
| 2026-04-10 14:26 | 41.77443 | -35.78503 | 34602 ft | 432 kts | 238° |
| 2026-04-10 14:27 | 41.73615 | -35.84733 | 34606 ft | 433 kts | 238° |
| 2026-04-10 14:27 | 41.69780 | -35.90962 | 34601 ft | 434 kts | 238° |
| 2026-04-10 14:28 | 41.65931 | -35.97200 | 34584 ft | 435 kts | 238° |
| 2026-04-10 14:28 | 41.62076 | -36.03435 | 34603 ft | 435 kts | 237° |
| 2026-04-10 14:29 | 41.58861 | -36.08627 | 34602 ft | 436 kts | 237° |
| 2026-04-10 14:29 | 41.54990 | -36.14863 | 34605 ft | 437 kts | 237° |
| 2026-04-10 14:30 | 41.51109 | -36.21104 | 34600 ft | 437 kts | 237° |
| 2026-04-10 14:30 | 41.47220 | -36.27345 | 34606 ft | 438 kts | 237° |
| 2026-04-10 14:31 | 41.43315 | -36.33597 | 34603 ft | 438 kts | 237° |
| 2026-04-10 14:31 | 41.39398 | -36.39858 | 34607 ft | 439 kts | 237° |
| 2026-04-10 14:32 | 41.35481 | -36.46102 | 34600 ft | 440 kts | 237° |
| 2026-04-10 14:32 | 41.31553 | -36.52356 | 34600 ft | 441 kts | 237° |
| 2026-04-10 14:33 | 41.27640 | -36.58570 | 34600 ft | 442 kts | 237° |
| 2026-04-10 14:33 | 41.23682 | -36.64843 | 34610 ft | 442 kts | 237° |
| 2026-04-10 14:34 | 41.19724 | -36.71104 | 34607 ft | 443 kts | 237° |
| 2026-04-10 14:34 | 41.15757 | -36.77365 | 34607 ft | 443 kts | 237° |
| 2026-04-10 14:35 | 41.11786 | -36.83620 | 34585 ft | 443 kts | 237° |
| 2026-04-10 14:35 | 41.07830 | -36.89838 | 34607 ft | 443 kts | 237° |
| 2026-04-10 14:36 | 41.03844 | -36.96089 | 34599 ft | 443 kts | 237° |
| 2026-04-10 14:36 | 40.99867 | -37.02311 | 34832 ft | 437 kts | 237° |
| 2026-04-10 14:36 | 40.97915 | -37.05352 | 35153 ft | 431 kts | 236° |
| 2026-04-10 14:37 | 40.95989 | -37.08349 | 35497 ft | 423 kts | 236° |
| 2026-04-10 14:37 | 40.94093 | -37.11297 | 35757 ft | 418 kts | 237° |
| 2026-04-10 14:37 | 40.92220 | -37.14209 | 36002 ft | 413 kts | 237° |
| 2026-04-10 14:37 | 40.90370 | -37.17086 | 36241 ft | 408 kts | 237° |
| 2026-04-10 14:38 | 40.88544 | -37.19927 | 36376 ft | 404 kts | 237° |
| 2026-04-10 14:38 | 40.84905 | -37.25592 | 36377 ft | 403 kts | 237° |
| 2026-04-10 14:39 | 40.81288 | -37.31215 | 36284 ft | 406 kts | 236° |
| 2026-04-10 14:39 | 40.79447 | -37.34071 | 36125 ft | 410 kts | 236° |
| 2026-04-10 14:39 | 40.77588 | -37.36954 | 35937 ft | 416 kts | 236° |
| 2026-04-10 14:39 | 40.75696 | -37.39884 | 35690 ft | 422 kts | 236° |
| 2026-04-10 14:40 | 40.73785 | -37.42838 | 35603 ft | 424 kts | 236° |
| 2026-04-10 14:40 | 40.69931 | -37.48771 | 35595 ft | 426 kts | 236° |
| 2026-04-10 14:41 | 40.66066 | -37.54710 | 35602 ft | 427 kts | 236° |
| 2026-04-10 14:41 | 40.62188 | -37.60663 | 35599 ft | 429 kts | 236° |
| 2026-04-10 14:42 | 40.58318 | -37.66593 | 35586 ft | 431 kts | 236° |
| 2026-04-10 14:42 | 40.54397 | -37.72593 | 35587 ft | 432 kts | 236° |
| 2026-04-10 14:43 | 40.50466 | -37.78595 | 35604 ft | 434 kts | 235° |
| 2026-04-10 14:43 | 40.46514 | -37.84615 | 35581 ft | 436 kts | 235° |
| 2026-04-10 14:44 | 40.42542 | -37.90657 | 35596 ft | 437 kts | 235° |
| 2026-04-10 14:44 | 40.38582 | -37.96670 | 35579 ft | 438 kts | 235° |
| 2026-04-10 14:45 | 40.34587 | -38.02729 | 35591 ft | 440 kts | 234° |
| 2026-04-10 14:45 | 40.30571 | -38.08796 | 35580 ft | 441 kts | 234° |
| 2026-04-10 14:46 | 40.26542 | -38.14869 | 35590 ft | 442 kts | 234° |
| 2026-04-10 14:46 | 40.22494 | -38.20961 | 35583 ft | 443 kts | 234° |
| 2026-04-10 14:47 | 40.18462 | -38.27019 | 35586 ft | 445 kts | 234° |
| 2026-04-10 14:47 | 40.14390 | -38.33127 | 35579 ft | 447 kts | 234° |
| 2026-04-10 14:48 | 40.10292 | -38.39261 | 35583 ft | 447 kts | 234° |
| 2026-04-10 14:48 | 40.06198 | -38.45376 | 35579 ft | 448 kts | 234° |
| 2026-04-10 14:49 | 40.02092 | -38.51499 | 35583 ft | 449 kts | 234° |
| 2026-04-10 14:49 | 39.97960 | -38.57654 | 35574 ft | 452 kts | 234° |
| 2026-04-10 14:50 | 39.93819 | -38.63805 | 35573 ft | 451 kts | 234° |
| 2026-04-10 14:50 | 39.89679 | -38.69940 | 35560 ft | 450 kts | 233° |
| 2026-04-10 14:51 | 39.85542 | -38.76063 | 35573 ft | 450 kts | 233° |
| 2026-04-10 14:51 | 39.81388 | -38.82194 | 35566 ft | 453 kts | 233° |
| 2026-04-10 14:52 | 39.77208 | -38.88349 | 35561 ft | 454 kts | 233° |
| 2026-04-10 14:52 | 39.73054 | -38.94450 | 35564 ft | 453 kts | 233° |
| 2026-04-10 14:53 | 39.68875 | -39.00578 | 35560 ft | 453 kts | 233° |
| 2026-04-10 14:53 | 39.64698 | -39.06696 | 35555 ft | 453 kts | 233° |
| 2026-04-10 14:54 | 39.60517 | -39.12812 | 35557 ft | 454 kts | 233° |
| 2026-04-10 14:54 | 39.56324 | -39.18931 | 35558 ft | 453 kts | 233° |
| 2026-04-10 14:55 | 39.52135 | -39.25028 | 35538 ft | 453 kts | 233° |
| 2026-04-10 14:55 | 39.47941 | -39.31116 | 35547 ft | 453 kts | 233° |
| 2026-04-10 14:56 | 39.43747 | -39.37196 | 35547 ft | 453 kts | 233° |
| 2026-04-10 14:56 | 39.39566 | -39.43245 | 35538 ft | 453 kts | 233° |
| 2026-04-10 14:57 | 39.35361 | -39.49319 | 35558 ft | 453 kts | 233° |
| 2026-04-10 14:57 | 39.31143 | -39.55401 | 35534 ft | 454 kts | 233° |
| 2026-04-10 14:58 | 39.26926 | -39.61467 | 35538 ft | 454 kts | 233° |
| 2026-04-10 14:58 | 39.22697 | -39.67545 | 35535 ft | 455 kts | 233° |
| 2026-04-10 14:59 | 39.18463 | -39.73617 | 35513 ft | 455 kts | 233° |
| 2026-04-10 14:59 | 39.14227 | -39.79677 | 35532 ft | 456 kts | 233° |
| 2026-04-10 15:00 | 39.09976 | -39.85746 | 35524 ft | 456 kts | 232° |
| 2026-04-10 15:00 | 39.05718 | -39.91803 | 35526 ft | 457 kts | 233° |
| 2026-04-10 15:01 | 39.01473 | -39.97839 | 35521 ft | 458 kts | 233° |
| 2026-04-10 15:01 | 38.97207 | -40.03942 | 35514 ft | 459 kts | 233° |
| 2026-04-10 15:02 | 38.92997 | -40.10105 | 35510 ft | 458 kts | 233° |
| 2026-04-10 15:02 | 38.88792 | -40.16270 | 35511 ft | 459 kts | 233° |
| 2026-04-10 15:03 | 38.84565 | -40.22430 | 35506 ft | 459 kts | 233° |
| 2026-04-10 15:03 | 38.80355 | -40.28538 | 35511 ft | 460 kts | 233° |
| 2026-04-10 15:04 | 38.76095 | -40.34717 | 35498 ft | 463 kts | 233° |
| 2026-04-10 15:04 | 38.71821 | -40.40886 | 35506 ft | 462 kts | 233° |
| 2026-04-10 15:05 | 38.65412 | -40.50115 | 35506 ft | 462 kts | 233° |
| 2026-04-10 15:05 | 38.61145 | -40.56250 | 35503 ft | 462 kts | 233° |
| 2026-04-10 15:06 | 38.56866 | -40.62391 | 35503 ft | 462 kts | 233° |
| 2026-04-10 15:06 | 38.52590 | -40.68515 | 35503 ft | 462 kts | 233° |
| 2026-04-10 15:07 | 38.48337 | -40.74595 | 35502 ft | 462 kts | 233° |
| 2026-04-10 15:07 | 38.44059 | -40.80699 | 35501 ft | 462 kts | 233° |
| 2026-04-10 15:08 | 38.39771 | -40.86807 | 35498 ft | 463 kts | 233° |
| 2026-04-10 15:08 | 38.35474 | -40.92913 | 35502 ft | 462 kts | 233° |
| 2026-04-10 15:09 | 38.31170 | -40.99018 | 35504 ft | 463 kts | 233° |
| 2026-04-10 15:09 | 38.26866 | -41.05111 | 35497 ft | 463 kts | 233° |
| 2026-04-10 15:10 | 38.22558 | -41.11199 | 35496 ft | 463 kts | 232° |
| 2026-04-10 15:10 | 38.18243 | -41.17285 | 35498 ft | 463 kts | 232° |
| 2026-04-10 15:11 | 38.13928 | -41.23358 | 35500 ft | 463 kts | 232° |
| 2026-04-10 15:11 | 38.09636 | -41.29390 | 35500 ft | 463 kts | 232° |
| 2026-04-10 15:12 | 38.05307 | -41.35460 | 35497 ft | 464 kts | 232° |
| 2026-04-10 15:12 | 38.00972 | -41.41528 | 35497 ft | 464 kts | 232° |
| 2026-04-10 15:13 | 37.96635 | -41.47587 | 35509 ft | 464 kts | 232° |
| 2026-04-10 15:13 | 37.92282 | -41.53651 | 35487 ft | 465 kts | 232° |
| 2026-04-10 15:14 | 37.87921 | -41.59717 | 35494 ft | 465 kts | 232° |
| 2026-04-10 15:14 | 37.83560 | -41.65779 | 35489 ft | 466 kts | 232° |
| 2026-04-10 15:15 | 37.79195 | -41.71834 | 35496 ft | 467 kts | 232° |
| 2026-04-10 15:15 | 37.74813 | -41.77900 | 35489 ft | 467 kts | 232° |
| 2026-04-10 15:16 | 37.70453 | -41.83922 | 35494 ft | 467 kts | 232° |
| 2026-04-10 15:16 | 37.66059 | -41.89980 | 35494 ft | 468 kts | 232° |
| 2026-04-10 15:17 | 37.61657 | -41.96037 | 35493 ft | 468 kts | 231° |
| 2026-04-10 15:17 | 37.57253 | -42.02086 | 35496 ft | 468 kts | 231° |
| 2026-04-10 15:18 | 37.53585 | -42.07114 | 35496 ft | 469 kts | 231° |
| 2026-04-10 15:18 | 37.49162 | -42.13168 | 35495 ft | 469 kts | 231° |
| 2026-04-10 15:19 | 37.44736 | -42.19215 | 35495 ft | 469 kts | 231° |
| 2026-04-10 15:19 | 37.40304 | -42.25258 | 35489 ft | 470 kts | 231° |
| 2026-04-10 15:20 | 37.35867 | -42.31297 | 35493 ft | 470 kts | 231° |
| 2026-04-10 15:20 | 37.31420 | -42.37338 | 35495 ft | 470 kts | 231° |
| 2026-04-10 15:21 | 37.26976 | -42.43364 | 35480 ft | 471 kts | 231° |
| 2026-04-10 15:21 | 37.22544 | -42.49362 | 35492 ft | 471 kts | 231° |
| 2026-04-10 15:22 | 37.18082 | -42.55390 | 35492 ft | 472 kts | 231° |
| 2026-04-10 15:22 | 37.13609 | -42.61421 | 35493 ft | 472 kts | 231° |
| 2026-04-10 15:23 | 37.09122 | -42.67460 | 35489 ft | 473 kts | 231° |
| 2026-04-10 15:23 | 37.04634 | -42.73488 | 35490 ft | 473 kts | 231° |
| 2026-04-10 15:24 | 37.00142 | -42.79512 | 35492 ft | 474 kts | 231° |
| 2026-04-10 15:24 | 36.95644 | -42.85531 | 35489 ft | 474 kts | 231° |
| 2026-04-10 15:25 | 36.91131 | -42.91560 | 35492 ft | 475 kts | 231° |
| 2026-04-10 15:25 | 36.86642 | -42.97545 | 35492 ft | 475 kts | 231° |
| 2026-04-10 15:26 | 36.82111 | -43.03576 | 35492 ft | 475 kts | 231° |
| 2026-04-10 15:26 | 36.77579 | -43.09596 | 35489 ft | 476 kts | 230° |
| 2026-04-10 15:27 | 36.73041 | -43.15614 | 35492 ft | 476 kts | 230° |
| 2026-04-10 15:27 | 36.68503 | -43.21620 | 35492 ft | 476 kts | 230° |
| 2026-04-10 15:28 | 36.63952 | -43.27632 | 35492 ft | 477 kts | 230° |
| 2026-04-10 15:28 | 36.59399 | -43.33636 | 35492 ft | 477 kts | 230° |
| 2026-04-10 15:29 | 36.54838 | -43.39640 | 35482 ft | 477 kts | 230° |
| 2026-04-10 15:29 | 36.50278 | -43.45632 | 35484 ft | 477 kts | 230° |
| 2026-04-10 15:30 | 36.45739 | -43.51583 | 35494 ft | 478 kts | 230° |
| 2026-04-10 15:30 | 36.41160 | -43.57572 | 35490 ft | 478 kts | 230° |
| 2026-04-10 15:31 | 36.36581 | -43.63554 | 35486 ft | 478 kts | 230° |
| 2026-04-10 15:31 | 36.31996 | -43.69532 | 35489 ft | 478 kts | 230° |
| 2026-04-10 15:32 | 36.27408 | -43.75505 | 35489 ft | 478 kts | 230° |
| 2026-04-10 15:32 | 36.22816 | -43.81472 | 35486 ft | 479 kts | 230° |
| 2026-04-10 15:33 | 36.18222 | -43.87433 | 35483 ft | 479 kts | 230° |
| 2026-04-10 15:33 | 36.13618 | -43.93398 | 35484 ft | 479 kts | 230° |
| 2026-04-10 15:34 | 36.09010 | -43.99357 | 35486 ft | 479 kts | 230° |
| 2026-04-10 15:34 | 36.04403 | -44.05301 | 35481 ft | 479 kts | 229° |
| 2026-04-10 15:35 | 35.99828 | -44.11193 | 35484 ft | 479 kts | 229° |
| 2026-04-10 15:35 | 35.95213 | -44.17124 | 35481 ft | 479 kts | 229° |
| 2026-04-10 15:36 | 35.90599 | -44.23045 | 35485 ft | 479 kts | 229° |
| 2026-04-10 15:36 | 35.85981 | -44.28960 | 35482 ft | 479 kts | 229° |
| 2026-04-10 15:37 | 35.81352 | -44.34878 | 35480 ft | 479 kts | 229° |
| 2026-04-10 15:37 | 35.76728 | -44.40780 | 35478 ft | 479 kts | 229° |
| 2026-04-10 15:38 | 35.72125 | -44.46644 | 35480 ft | 479 kts | 229° |
| 2026-04-10 15:38 | 35.67488 | -44.52540 | 35478 ft | 479 kts | 229° |
| 2026-04-10 15:39 | 35.62844 | -44.58437 | 35480 ft | 480 kts | 229° |
| 2026-04-10 15:39 | 35.58197 | -44.64325 | 35478 ft | 480 kts | 229° |
| 2026-04-10 15:40 | 35.53546 | -44.70209 | 35478 ft | 480 kts | 229° |
| 2026-04-10 15:40 | 35.48892 | -44.76085 | 35472 ft | 480 kts | 229° |
| 2026-04-10 15:41 | 35.44227 | -44.81966 | 35476 ft | 481 kts | 229° |
| 2026-04-10 15:41 | 35.39556 | -44.87843 | 35489 ft | 481 kts | 229° |
| 2026-04-10 15:42 | 35.34878 | -44.93719 | 35467 ft | 481 kts | 229° |
| 2026-04-10 15:42 | 35.30200 | -44.99584 | 35483 ft | 481 kts | 229° |
| 2026-04-10 15:43 | 35.25546 | -45.05408 | 35482 ft | 481 kts | 229° |
| 2026-04-10 15:43 | 35.20863 | -45.11255 | 35469 ft | 481 kts | 229° |
| 2026-04-10 15:44 | 35.16174 | -45.17101 | 35479 ft | 481 kts | 228° |
| 2026-04-10 15:44 | 35.11476 | -45.22951 | 35480 ft | 481 kts | 228° |
| 2026-04-10 15:45 | 35.06785 | -45.28786 | 35459 ft | 481 kts | 228° |
| 2026-04-10 15:45 | 35.02085 | -45.34620 | 35471 ft | 482 kts | 228° |
| 2026-04-10 15:46 | 34.97376 | -45.40452 | 35469 ft | 482 kts | 228° |
| 2026-04-10 15:46 | 34.92695 | -45.46239 | 35461 ft | 482 kts | 228° |
| 2026-04-10 15:47 | 34.87985 | -45.52052 | 35471 ft | 482 kts | 228° |
| 2026-04-10 15:47 | 34.83268 | -45.57864 | 35473 ft | 482 kts | 228° |
| 2026-04-10 15:48 | 34.78548 | -45.63669 | 35466 ft | 482 kts | 228° |
| 2026-04-10 15:48 | 34.73823 | -45.69467 | 35468 ft | 483 kts | 228° |
| 2026-04-10 15:49 | 34.69119 | -45.75230 | 35454 ft | 483 kts | 228° |
| 2026-04-10 15:49 | 34.64383 | -45.81025 | 35463 ft | 484 kts | 227° |
| 2026-04-10 15:50 | 34.59632 | -45.86829 | 35464 ft | 484 kts | 227° |
| 2026-04-10 15:50 | 34.54875 | -45.92629 | 35463 ft | 485 kts | 227° |
| 2026-04-10 15:51 | 34.50111 | -45.98429 | 35463 ft | 486 kts | 227° |
| 2026-04-10 15:51 | 34.45369 | -46.04196 | 35453 ft | 486 kts | 227° |
| 2026-04-10 15:52 | 34.40591 | -46.09995 | 35457 ft | 486 kts | 227° |
| 2026-04-10 15:52 | 34.35802 | -46.15796 | 35456 ft | 487 kts | 227° |
| 2026-04-10 15:53 | 34.31007 | -46.21594 | 35459 ft | 487 kts | 227° |
| 2026-04-10 15:53 | 34.26201 | -46.27394 | 35457 ft | 488 kts | 227° |
| 2026-04-10 15:54 | 34.21394 | -46.33186 | 35454 ft | 488 kts | 227° |
| 2026-04-10 15:54 | 34.16576 | -46.38981 | 35455 ft | 489 kts | 227° |
| 2026-04-10 15:55 | 34.11785 | -46.44735 | 35454 ft | 489 kts | 227° |
| 2026-04-10 15:55 | 34.06952 | -46.50526 | 35450 ft | 490 kts | 227° |
| 2026-04-10 15:56 | 34.02110 | -46.56316 | 35452 ft | 491 kts | 227° |
| 2026-04-10 15:56 | 33.97252 | -46.62119 | 35446 ft | 491 kts | 227° |
| 2026-04-10 15:57 | 33.92393 | -46.67913 | 35458 ft | 492 kts | 227° |
| 2026-04-10 15:57 | 33.87520 | -46.73716 | 35448 ft | 492 kts | 227° |
| 2026-04-10 15:58 | 33.82644 | -46.79511 | 35450 ft | 493 kts | 227° |
| 2026-04-10 15:58 | 33.77759 | -46.85307 | 35446 ft | 493 kts | 227° |
| 2026-04-10 15:59 | 33.72872 | -46.91097 | 35448 ft | 493 kts | 227° |
| 2026-04-10 15:59 | 33.68007 | -46.96849 | 35449 ft | 494 kts | 227° |
| 2026-04-10 16:00 | 33.63110 | -47.02632 | 35446 ft | 494 kts | 227° |
| 2026-04-10 16:00 | 33.58210 | -47.08406 | 35441 ft | 494 kts | 227° |
| 2026-04-10 16:01 | 33.53308 | -47.14172 | 35439 ft | 494 kts | 227° |
| 2026-04-10 16:01 | 33.48396 | -47.19943 | 35444 ft | 494 kts | 227° |
| 2026-04-10 16:02 | 33.43485 | -47.25707 | 35436 ft | 494 kts | 227° |
| 2026-04-10 16:02 | 33.38571 | -47.31457 | 35436 ft | 495 kts | 227° |
| 2026-04-10 16:03 | 33.33642 | -47.37216 | 35436 ft | 495 kts | 227° |
| 2026-04-10 16:03 | 33.29540 | -47.42003 | 35433 ft | 495 kts | 227° |
| 2026-04-10 16:04 | 33.24608 | -47.47750 | 35431 ft | 495 kts | 227° |
| 2026-04-10 16:04 | 33.19668 | -47.53496 | 35436 ft | 496 kts | 227° |
| 2026-04-10 16:05 | 33.13929 | -47.60164 | 35427 ft | 495 kts | 226° |
| 2026-04-10 16:05 | 33.09786 | -47.64967 | 35427 ft | 495 kts | 226° |
| 2026-04-10 16:06 | 33.04868 | -47.70657 | 35431 ft | 496 kts | 226° |
| 2026-04-10 16:06 | 32.99919 | -47.76379 | 35427 ft | 496 kts | 226° |
| 2026-04-10 16:07 | 32.94970 | -47.82091 | 35469 ft | 495 kts | 226° |
| 2026-04-10 16:07 | 32.92502 | -47.84935 | 35685 ft | 490 kts | 226° |
| 2026-04-10 16:07 | 32.90059 | -47.87745 | 35926 ft | 485 kts | 226° |
| 2026-04-10 16:08 | 32.87646 | -47.90516 | 36172 ft | 480 kts | 226° |
| 2026-04-10 16:08 | 32.85250 | -47.93266 | 36392 ft | 477 kts | 226° |
| 2026-04-10 16:08 | 32.80477 | -47.98743 | 36423 ft | 477 kts | 226° |
| 2026-04-10 16:09 | 32.75692 | -48.04230 | 36418 ft | 479 kts | 226° |
| 2026-04-10 16:09 | 32.70918 | -48.09695 | 36411 ft | 480 kts | 226° |
| 2026-04-10 16:10 | 32.66103 | -48.15197 | 36414 ft | 481 kts | 226° |
| 2026-04-10 16:10 | 32.61269 | -48.20713 | 36408 ft | 482 kts | 226° |
| 2026-04-10 16:11 | 32.56420 | -48.26235 | 36416 ft | 484 kts | 226° |
| 2026-04-10 16:11 | 32.51559 | -48.31764 | 36412 ft | 485 kts | 226° |
| 2026-04-10 16:12 | 32.46686 | -48.37300 | 36412 ft | 486 kts | 226° |
| 2026-04-10 16:13 | 32.39348 | -48.45615 | 36402 ft | 487 kts | 226° |
| 2026-04-10 16:13 | 32.34479 | -48.51123 | 36408 ft | 488 kts | 226° |
| 2026-04-10 16:14 | 32.29533 | -48.56708 | 36401 ft | 489 kts | 226° |
| 2026-04-10 16:14 | 32.24645 | -48.62220 | 36405 ft | 489 kts | 226° |
| 2026-04-10 16:15 | 32.19714 | -48.67769 | 36397 ft | 490 kts | 226° |
| 2026-04-10 16:15 | 32.14769 | -48.73322 | 36398 ft | 491 kts | 226° |
| 2026-04-10 16:16 | 32.09822 | -48.78877 | 36395 ft | 492 kts | 226° |
| 2026-04-10 16:16 | 32.04857 | -48.84442 | 36395 ft | 492 kts | 226° |
| 2026-04-10 16:17 | 31.99884 | -48.90006 | 36393 ft | 493 kts | 226° |
| 2026-04-10 16:17 | 31.94901 | -48.95571 | 36394 ft | 493 kts | 226° |
| 2026-04-10 16:18 | 31.89952 | -49.01091 | 36393 ft | 493 kts | 225° |
| 2026-04-10 16:18 | 31.84965 | -49.06642 | 36395 ft | 493 kts | 225° |
| 2026-04-10 16:19 | 31.79969 | -49.12194 | 36387 ft | 494 kts | 226° |
| 2026-04-10 16:19 | 31.74969 | -49.17746 | 36381 ft | 494 kts | 225° |
| 2026-04-10 16:20 | 31.69965 | -49.23291 | 36383 ft | 495 kts | 225° |
| 2026-04-10 16:20 | 31.64949 | -49.28841 | 36376 ft | 495 kts | 225° |
| 2026-04-10 16:21 | 31.59964 | -49.34348 | 36385 ft | 495 kts | 225° |
| 2026-04-10 16:21 | 31.54943 | -49.39885 | 36381 ft | 496 kts | 225° |
| 2026-04-10 16:22 | 31.49905 | -49.45434 | 36371 ft | 497 kts | 225° |
| 2026-04-10 16:22 | 31.44872 | -49.50970 | 36389 ft | 497 kts | 225° |
| 2026-04-10 16:23 | 31.39813 | -49.56524 | 36373 ft | 498 kts | 225° |
| 2026-04-10 16:23 | 31.34750 | -49.62074 | 36377 ft | 498 kts | 225° |
| 2026-04-10 16:24 | 31.29692 | -49.67612 | 36379 ft | 498 kts | 225° |
| 2026-04-10 16:24 | 31.24670 | -49.73099 | 36376 ft | 498 kts | 225° |
| 2026-04-10 16:25 | 31.19604 | -49.78626 | 36373 ft | 498 kts | 225° |
| 2026-04-10 16:25 | 31.14539 | -49.84144 | 36376 ft | 498 kts | 225° |
| 2026-04-10 16:26 | 31.09467 | -49.89662 | 36371 ft | 498 kts | 225° |
| 2026-04-10 16:26 | 31.04383 | -49.95185 | 36365 ft | 499 kts | 225° |
| 2026-04-10 16:27 | 30.99305 | -50.00693 | 36363 ft | 499 kts | 225° |
| 2026-04-10 16:27 | 30.94300 | -50.06302 | 36360 ft | 499 kts | 226° |
| 2026-04-10 16:28 | 30.89346 | -50.11981 | 36358 ft | 499 kts | 226° |
| 2026-04-10 16:28 | 30.84412 | -50.17610 | 36359 ft | 500 kts | 226° |
| 2026-04-10 16:29 | 30.79427 | -50.23256 | 36357 ft | 500 kts | 226° |
| 2026-04-10 16:29 | 30.74430 | -50.28896 | 36349 ft | 501 kts | 226° |
| 2026-04-10 16:30 | 30.69423 | -50.34540 | 36351 ft | 501 kts | 226° |
| 2026-04-10 16:30 | 30.64407 | -50.40184 | 36352 ft | 502 kts | 226° |
| 2026-04-10 16:31 | 30.59387 | -50.45826 | 36349 ft | 502 kts | 226° |
| 2026-04-10 16:31 | 30.54393 | -50.51430 | 36347 ft | 502 kts | 226° |
| 2026-04-10 16:32 | 30.49357 | -50.57072 | 36347 ft | 503 kts | 226° |
| 2026-04-10 16:32 | 30.44321 | -50.62704 | 36346 ft | 503 kts | 226° |
| 2026-04-10 16:33 | 30.39277 | -50.68339 | 36346 ft | 503 kts | 226° |
| 2026-04-10 16:33 | 30.34223 | -50.73976 | 36344 ft | 504 kts | 226° |
| 2026-04-10 16:34 | 30.29173 | -50.79599 | 36339 ft | 504 kts | 226° |
| 2026-04-10 16:34 | 30.24147 | -50.85188 | 36336 ft | 504 kts | 226° |
| 2026-04-10 16:35 | 30.19081 | -50.90812 | 36334 ft | 505 kts | 226° |
| 2026-04-10 16:35 | 30.14012 | -50.96433 | 36336 ft | 505 kts | 226° |
| 2026-04-10 16:36 | 30.08939 | -51.02048 | 36334 ft | 505 kts | 226° |
| 2026-04-10 16:36 | 30.03859 | -51.07662 | 36330 ft | 506 kts | 226° |
| 2026-04-10 16:37 | 29.98777 | -51.13270 | 36330 ft | 506 kts | 226° |
| 2026-04-10 16:37 | 29.93678 | -51.18891 | 36330 ft | 506 kts | 226° |
| 2026-04-10 16:38 | 29.88618 | -51.24458 | 36328 ft | 506 kts | 226° |
| 2026-04-10 16:38 | 29.83516 | -51.30063 | 36324 ft | 507 kts | 226° |
| 2026-04-10 16:39 | 29.78409 | -51.35668 | 36317 ft | 507 kts | 225° |
| 2026-04-10 16:39 | 29.73295 | -51.41270 | 36322 ft | 507 kts | 225° |
| 2026-04-10 16:40 | 29.68180 | -51.46865 | 36323 ft | 508 kts | 225° |
| 2026-04-10 16:40 | 29.63059 | -51.52458 | 36322 ft | 508 kts | 225° |
| 2026-04-10 16:41 | 29.57920 | -51.58062 | 36317 ft | 508 kts | 225° |
| 2026-04-10 16:41 | 29.52791 | -51.63649 | 36317 ft | 508 kts | 225° |
| 2026-04-10 16:42 | 29.47693 | -51.69193 | 36317 ft | 508 kts | 225° |
| 2026-04-10 16:42 | 29.42554 | -51.74774 | 36311 ft | 508 kts | 225° |
| 2026-04-10 16:43 | 29.37412 | -51.80349 | 36312 ft | 509 kts | 225° |
| 2026-04-10 16:43 | 29.32264 | -51.85923 | 36305 ft | 508 kts | 225° |
| 2026-04-10 16:44 | 29.27119 | -51.91487 | 36305 ft | 509 kts | 225° |
| 2026-04-10 16:44 | 29.21968 | -51.97047 | 36306 ft | 509 kts | 225° |
| 2026-04-10 16:45 | 29.16853 | -52.02560 | 36303 ft | 509 kts | 225° |
| 2026-04-10 16:45 | 29.11692 | -52.08115 | 36306 ft | 509 kts | 225° |
| 2026-04-10 16:46 | 29.06530 | -52.13665 | 36301 ft | 509 kts | 225° |
| 2026-04-10 16:46 | 29.01367 | -52.19207 | 36303 ft | 509 kts | 225° |
| 2026-04-10 16:47 | 28.96203 | -52.24741 | 36298 ft | 509 kts | 225° |
| 2026-04-10 16:47 | 28.91021 | -52.30288 | 36298 ft | 509 kts | 225° |
| 2026-04-10 16:48 | 28.85881 | -52.35780 | 36294 ft | 509 kts | 225° |
| 2026-04-10 16:48 | 28.80709 | -52.41301 | 36295 ft | 509 kts | 225° |
| 2026-04-10 16:49 | 28.75532 | -52.46818 | 36287 ft | 509 kts | 225° |
| 2026-04-10 16:49 | 28.70354 | -52.52326 | 36289 ft | 510 kts | 225° |
| 2026-04-10 16:50 | 28.65171 | -52.57833 | 36285 ft | 509 kts | 225° |
| 2026-04-10 16:50 | 28.59992 | -52.63329 | 36286 ft | 509 kts | 225° |
| 2026-04-10 16:51 | 28.54798 | -52.68832 | 36284 ft | 509 kts | 225° |
| 2026-04-10 16:51 | 28.49641 | -52.74289 | 36282 ft | 510 kts | 225° |
| 2026-04-10 16:52 | 28.44459 | -52.79764 | 36281 ft | 509 kts | 225° |
| 2026-04-10 16:52 | 28.39254 | -52.85256 | 36282 ft | 509 kts | 225° |
| 2026-04-10 16:53 | 28.34938 | -52.89804 | 36276 ft | 509 kts | 225° |
| 2026-04-10 16:53 | 28.29731 | -52.95284 | 36276 ft | 510 kts | 225° |
| 2026-04-10 16:54 | 28.24529 | -53.00752 | 36272 ft | 510 kts | 225° |
| 2026-04-10 16:54 | 28.19324 | -53.06214 | 36271 ft | 510 kts | 225° |
| 2026-04-10 16:55 | 28.14114 | -53.11675 | 36268 ft | 510 kts | 224° |
| 2026-04-10 16:55 | 28.08910 | -53.17122 | 36268 ft | 510 kts | 224° |
| 2026-04-10 16:56 | 28.03702 | -53.22566 | 36265 ft | 509 kts | 225° |
| 2026-04-10 16:56 | 27.98499 | -53.27996 | 36264 ft | 508 kts | 225° |
| 2026-04-10 16:57 | 27.93303 | -53.33411 | 36265 ft | 507 kts | 225° |
| 2026-04-10 16:57 | 27.88145 | -53.38779 | 36263 ft | 507 kts | 225° |
| 2026-04-10 16:58 | 27.82955 | -53.44175 | 36265 ft | 507 kts | 225° |
| 2026-04-10 16:58 | 27.77763 | -53.49564 | 36262 ft | 507 kts | 225° |
| 2026-04-10 16:59 | 27.72570 | -53.54947 | 36257 ft | 507 kts | 225° |
| 2026-04-10 16:59 | 27.67365 | -53.60336 | 36257 ft | 507 kts | 224° |
| 2026-04-10 17:00 | 27.62165 | -53.65712 | 36257 ft | 507 kts | 224° |
| 2026-04-10 17:00 | 27.56968 | -53.71078 | 36257 ft | 507 kts | 225° |
| 2026-04-10 17:01 | 27.51757 | -53.76450 | 36255 ft | 507 kts | 225° |
| 2026-04-10 17:01 | 27.46588 | -53.81773 | 36252 ft | 507 kts | 224° |
| 2026-04-10 17:02 | 27.41373 | -53.87136 | 36252 ft | 507 kts | 224° |
| 2026-04-10 17:02 | 27.36165 | -53.92484 | 36252 ft | 507 kts | 224° |
| 2026-04-10 17:03 | 27.30952 | -53.97830 | 36246 ft | 507 kts | 224° |
| 2026-04-10 17:03 | 27.25736 | -54.03173 | 36243 ft | 507 kts | 224° |
| 2026-04-10 17:04 | 27.20519 | -54.08509 | 36246 ft | 507 kts | 224° |
| 2026-04-10 17:04 | 27.15292 | -54.13848 | 36241 ft | 507 kts | 224° |
| 2026-04-10 17:05 | 27.10100 | -54.19145 | 36241 ft | 507 kts | 224° |
| 2026-04-10 17:05 | 27.04877 | -54.24466 | 36241 ft | 507 kts | 224° |
| 2026-04-10 17:06 | 26.99645 | -54.29789 | 36233 ft | 507 kts | 224° |
| 2026-04-10 17:06 | 26.94408 | -54.35110 | 36241 ft | 508 kts | 224° |
| 2026-04-10 17:07 | 26.89177 | -54.40419 | 36227 ft | 508 kts | 224° |
| 2026-04-10 17:07 | 26.83931 | -54.45736 | 36236 ft | 508 kts | 224° |
| 2026-04-10 17:08 | 26.78692 | -54.51038 | 36228 ft | 508 kts | 224° |
| 2026-04-10 17:08 | 26.73473 | -54.56315 | 36233 ft | 508 kts | 224° |
| 2026-04-10 17:09 | 26.68218 | -54.61620 | 36229 ft | 509 kts | 224° |
| 2026-04-10 17:09 | 26.62954 | -54.66927 | 36221 ft | 509 kts | 224° |
| 2026-04-10 17:10 | 26.57691 | -54.72227 | 36227 ft | 509 kts | 224° |
| 2026-04-10 17:10 | 26.52462 | -54.77485 | 36222 ft | 509 kts | 224° |
| 2026-04-10 17:11 | 26.47193 | -54.82777 | 36222 ft | 509 kts | 224° |
| 2026-04-10 17:11 | 26.41958 | -54.88026 | 36218 ft | 502 kts | 224° |
| 2026-04-10 17:12 | 26.36765 | -54.93226 | 36217 ft | 501 kts | 224° |
| 2026-04-10 17:12 | 26.31554 | -54.98442 | 36213 ft | 503 kts | 224° |
| 2026-04-10 17:13 | 26.26328 | -55.03662 | 36213 ft | 505 kts | 224° |
| 2026-04-10 17:13 | 26.21085 | -55.08894 | 36215 ft | 506 kts | 224° |
| 2026-04-10 17:14 | 26.15864 | -55.14101 | 36208 ft | 507 kts | 224° |
| 2026-04-10 17:14 | 26.10598 | -55.19345 | 36214 ft | 508 kts | 224° |
| 2026-04-10 17:15 | 26.05323 | -55.24590 | 36213 ft | 509 kts | 224° |
| 2026-04-10 17:15 | 26.00040 | -55.29834 | 36207 ft | 509 kts | 224° |
| 2026-04-10 17:16 | 25.94748 | -55.35083 | 36209 ft | 509 kts | 224° |
| 2026-04-10 17:16 | 25.89460 | -55.40321 | 36209 ft | 509 kts | 224° |
| 2026-04-10 17:17 | 25.84177 | -55.45548 | 36206 ft | 509 kts | 224° |
| 2026-04-10 17:17 | 25.78882 | -55.50780 | 36203 ft | 509 kts | 224° |
| 2026-04-10 17:18 | 25.73617 | -55.55974 | 36205 ft | 509 kts | 224° |
| 2026-04-10 17:18 | 25.68324 | -55.61191 | 36203 ft | 509 kts | 224° |
| 2026-04-10 17:19 | 25.63026 | -55.66407 | 36204 ft | 509 kts | 224° |
| 2026-04-10 17:19 | 25.57730 | -55.71613 | 36202 ft | 509 kts | 224° |
| 2026-04-10 17:20 | 25.52426 | -55.76821 | 36201 ft | 509 kts | 224° |
| 2026-04-10 17:20 | 25.47117 | -55.82027 | 36200 ft | 509 kts | 224° |
| 2026-04-10 17:21 | 25.39153 | -55.89827 | 36187 ft | 509 kts | 225° |
| 2026-04-10 17:21 | 25.33847 | -55.95017 | 36193 ft | 510 kts | 225° |
| 2026-04-10 17:22 | 25.28532 | -56.00210 | 36192 ft | 510 kts | 225° |
| 2026-04-10 17:22 | 25.23249 | -56.05365 | 36193 ft | 510 kts | 225° |
| 2026-04-10 17:23 | 25.17928 | -56.10548 | 36190 ft | 510 kts | 225° |
| 2026-04-10 17:23 | 25.12599 | -56.15729 | 36189 ft | 510 kts | 225° |
| 2026-04-10 17:24 | 25.07262 | -56.20912 | 36189 ft | 511 kts | 224° |
| 2026-04-10 17:24 | 25.01932 | -56.26084 | 36189 ft | 511 kts | 224° |
| 2026-04-10 17:25 | 24.96589 | -56.31264 | 36195 ft | 511 kts | 225° |
| 2026-04-10 17:25 | 24.91284 | -56.36401 | 36179 ft | 510 kts | 225° |
| 2026-04-10 17:26 | 24.85953 | -56.41558 | 36191 ft | 510 kts | 225° |
| 2026-04-10 17:26 | 24.80616 | -56.46713 | 36175 ft | 510 kts | 225° |
| 2026-04-10 17:27 | 24.75272 | -56.51869 | 36190 ft | 510 kts | 225° |
| 2026-04-10 17:27 | 24.69939 | -56.57009 | 36185 ft | 510 kts | 225° |
| 2026-04-10 17:28 | 24.64601 | -56.62146 | 36180 ft | 509 kts | 225° |
| 2026-04-10 17:28 | 24.59267 | -56.67274 | 36179 ft | 509 kts | 225° |
| 2026-04-10 17:29 | 24.53936 | -56.72393 | 36179 ft | 509 kts | 225° |
| 2026-04-10 17:29 | 24.48608 | -56.77504 | 36178 ft | 509 kts | 225° |
| 2026-04-10 17:30 | 24.43302 | -56.82587 | 36171 ft | 509 kts | 225° |
| 2026-04-10 17:30 | 24.37974 | -56.87686 | 36170 ft | 508 kts | 225° |
| 2026-04-10 17:31 | 24.32642 | -56.92782 | 36172 ft | 508 kts | 225° |
| 2026-04-10 17:31 | 24.27315 | -56.97868 | 36173 ft | 507 kts | 225° |
| 2026-04-10 17:32 | 24.21987 | -57.02948 | 36166 ft | 507 kts | 225° |
| 2026-04-10 17:32 | 24.16656 | -57.08027 | 36171 ft | 507 kts | 225° |
| 2026-04-10 17:33 | 24.11330 | -57.13094 | 36161 ft | 507 kts | 225° |
| 2026-04-10 17:33 | 24.06007 | -57.18153 | 36169 ft | 506 kts | 225° |
| 2026-04-10 17:34 | 24.00693 | -57.23196 | 36165 ft | 506 kts | 225° |
| 2026-04-10 17:34 | 23.95405 | -57.28210 | 36168 ft | 506 kts | 225° |
| 2026-04-10 17:35 | 23.90083 | -57.33250 | 36162 ft | 505 kts | 225° |
| 2026-04-10 17:35 | 23.84765 | -57.38281 | 36159 ft | 505 kts | 225° |
| 2026-04-10 17:36 | 23.79452 | -57.43306 | 36160 ft | 504 kts | 225° |
| 2026-04-10 17:36 | 23.74142 | -57.48321 | 36159 ft | 504 kts | 224° |
| 2026-04-10 17:37 | 23.68872 | -57.53290 | 36161 ft | 503 kts | 224° |
| 2026-04-10 17:37 | 23.63563 | -57.58287 | 36157 ft | 504 kts | 224° |
| 2026-04-10 17:38 | 23.58242 | -57.63289 | 36156 ft | 504 kts | 224° |
| 2026-04-10 17:38 | 23.52969 | -57.68244 | 36156 ft | 503 kts | 224° |
| 2026-04-10 17:39 | 23.47672 | -57.73220 | 36155 ft | 503 kts | 224° |
| 2026-04-10 17:39 | 23.42366 | -57.78198 | 36154 ft | 502 kts | 224° |
| 2026-04-10 17:40 | 23.37073 | -57.83155 | 36151 ft | 502 kts | 224° |
| 2026-04-10 17:40 | 23.31767 | -57.88119 | 36152 ft | 502 kts | 224° |
| 2026-04-10 17:41 | 23.27360 | -57.92239 | 36152 ft | 502 kts | 224° |
| 2026-04-10 17:41 | 23.21194 | -57.97996 | 36148 ft | 501 kts | 224° |
| 2026-04-10 17:42 | 23.16761 | -58.02126 | 36146 ft | 501 kts | 224° |
| 2026-04-10 17:42 | 23.11466 | -58.07056 | 36146 ft | 501 kts | 224° |
| 2026-04-10 17:43 | 23.06175 | -58.11979 | 36143 ft | 501 kts | 224° |
| 2026-04-10 17:43 | 23.00881 | -58.16901 | 36134 ft | 501 kts | 224° |
| 2026-04-10 17:44 | 22.95617 | -58.21793 | 36142 ft | 501 kts | 224° |
| 2026-04-10 17:44 | 22.90323 | -58.26707 | 36140 ft | 500 kts | 224° |
| 2026-04-10 17:45 | 22.85036 | -58.31608 | 36141 ft | 500 kts | 224° |
| 2026-04-10 17:45 | 22.79743 | -58.36508 | 36142 ft | 500 kts | 224° |
| 2026-04-10 17:46 | 22.74450 | -58.41401 | 36133 ft | 500 kts | 224° |
| 2026-04-10 17:46 | 22.69151 | -58.46292 | 36133 ft | 500 kts | 224° |
| 2026-04-10 17:47 | 22.63851 | -58.51183 | 36132 ft | 500 kts | 224° |
| 2026-04-10 17:47 | 22.58555 | -58.56068 | 36134 ft | 500 kts | 224° |
| 2026-04-10 17:48 | 22.53293 | -58.60915 | 36125 ft | 500 kts | 224° |
| 2026-04-10 17:48 | 22.47996 | -58.65785 | 36130 ft | 500 kts | 224° |
| 2026-04-10 17:49 | 22.42698 | -58.70651 | 36132 ft | 500 kts | 224° |
| 2026-04-10 17:49 | 22.37392 | -58.75522 | 36125 ft | 500 kts | 224° |
| 2026-04-10 17:50 | 22.32088 | -58.80385 | 36120 ft | 500 kts | 224° |
| 2026-04-10 17:50 | 22.26784 | -58.85242 | 36140 ft | 499 kts | 224° |
| 2026-04-10 17:51 | 22.21490 | -58.90092 | 36140 ft | 499 kts | 224° |
| 2026-04-10 17:51 | 22.16221 | -58.94913 | 36123 ft | 499 kts | 224° |
| 2026-04-10 17:52 | 22.10917 | -58.99758 | 36126 ft | 499 kts | 224° |
| 2026-04-10 17:52 | 22.05613 | -59.04597 | 36126 ft | 499 kts | 224° |
| 2026-04-10 17:53 | 22.00320 | -59.09421 | 36125 ft | 498 kts | 224° |
| 2026-04-10 17:53 | 21.95025 | -59.14243 | 36107 ft | 498 kts | 224° |
| 2026-04-10 17:54 | 21.89733 | -59.19057 | 36128 ft | 498 kts | 224° |
| 2026-04-10 17:54 | 21.84444 | -59.23862 | 36102 ft | 498 kts | 224° |
| 2026-04-10 17:55 | 21.79156 | -59.28660 | 36118 ft | 497 kts | 224° |
| 2026-04-10 17:55 | 21.73867 | -59.33457 | 36118 ft | 496 kts | 224° |
| 2026-04-10 17:56 | 21.68592 | -59.38236 | 36113 ft | 495 kts | 224° |
| 2026-04-10 17:56 | 21.63356 | -59.42977 | 36113 ft | 495 kts | 224° |
| 2026-04-10 17:57 | 21.58081 | -59.47747 | 36114 ft | 495 kts | 224° |
| 2026-04-10 17:57 | 21.52812 | -59.52506 | 36111 ft | 495 kts | 224° |
| 2026-04-10 17:58 | 21.47543 | -59.57261 | 36111 ft | 495 kts | 224° |
| 2026-04-10 17:58 | 21.42272 | -59.62013 | 36109 ft | 494 kts | 224° |
| 2026-04-10 17:59 | 21.37012 | -59.66750 | 36110 ft | 494 kts | 224° |
| 2026-04-10 17:59 | 21.31778 | -59.71450 | 36107 ft | 493 kts | 225° |
| 2026-04-10 18:00 | 21.26531 | -59.76170 | 36108 ft | 492 kts | 225° |
| 2026-04-10 18:00 | 21.21277 | -59.80893 | 36109 ft | 492 kts | 225° |
| 2026-04-10 18:01 | 21.16035 | -59.85597 | 36103 ft | 492 kts | 225° |
| 2026-04-10 18:01 | 21.10792 | -59.90294 | 36098 ft | 491 kts | 225° |
| 2026-04-10 18:02 | 21.05555 | -59.94976 | 36098 ft | 489 kts | 225° |
| 2026-04-10 18:02 | 21.00396 | -59.99651 | 36095 ft | 486 kts | 229° |
| 2026-04-10 18:03 | 20.95573 | -60.04703 | 36098 ft | 484 kts | 230° |
| 2026-04-10 18:03 | 20.90803 | -60.09856 | 36098 ft | 484 kts | 230° |
| 2026-04-10 18:04 | 20.86104 | -60.14954 | 36095 ft | 483 kts | 231° |
| 2026-04-10 18:04 | 20.81373 | -60.20075 | 36095 ft | 483 kts | 230° |
| 2026-04-10 18:05 | 20.76649 | -60.25169 | 36092 ft | 482 kts | 230° |
| 2026-04-10 18:05 | 20.71953 | -60.30226 | 36090 ft | 482 kts | 230° |
| 2026-04-10 18:06 | 20.67231 | -60.35305 | 36094 ft | 482 kts | 230° |
| 2026-04-10 18:06 | 20.62510 | -60.40381 | 36091 ft | 481 kts | 230° |
| 2026-04-10 18:07 | 20.57787 | -60.45454 | 36083 ft | 481 kts | 230° |
| 2026-04-10 18:07 | 20.53074 | -60.50512 | 36083 ft | 480 kts | 230° |
| 2026-04-10 18:08 | 20.48356 | -60.55570 | 36086 ft | 480 kts | 230° |
| 2026-04-10 18:08 | 20.43676 | -60.60583 | 36084 ft | 480 kts | 230° |
| 2026-04-10 18:09 | 20.36608 | -60.68144 | 36083 ft | 479 kts | 230° |
| 2026-04-10 18:10 | 20.31907 | -60.73169 | 36080 ft | 479 kts | 230° |
| 2026-04-10 18:10 | 20.27189 | -60.78208 | 36080 ft | 479 kts | 230° |
| 2026-04-10 18:11 | 20.22486 | -60.83225 | 36079 ft | 479 kts | 230° |
| 2026-04-10 18:11 | 20.17779 | -60.88241 | 36078 ft | 478 kts | 230° |
| 2026-04-10 18:12 | 20.13069 | -60.93253 | 36078 ft | 478 kts | 230° |
| 2026-04-10 18:12 | 20.08401 | -60.98219 | 36080 ft | 478 kts | 230° |
| 2026-04-10 18:13 | 20.03697 | -61.03220 | 36078 ft | 478 kts | 230° |
| 2026-04-10 18:13 | 19.98998 | -61.08210 | 36077 ft | 477 kts | 230° |
| 2026-04-10 18:14 | 19.94297 | -61.13198 | 36074 ft | 477 kts | 230° |
| 2026-04-10 18:14 | 19.89601 | -61.18175 | 36068 ft | 476 kts | 230° |
| 2026-04-10 18:15 | 19.84912 | -61.23140 | 36069 ft | 476 kts | 230° |
| 2026-04-10 18:15 | 19.80225 | -61.28101 | 36070 ft | 476 kts | 230° |
| 2026-04-10 18:16 | 19.75564 | -61.33030 | 36070 ft | 476 kts | 230° |
| 2026-04-10 18:16 | 19.70874 | -61.37984 | 36067 ft | 475 kts | 230° |
| 2026-04-10 18:17 | 19.66189 | -61.42929 | 36068 ft | 474 kts | 230° |
| 2026-04-10 18:17 | 19.61517 | -61.47853 | 36066 ft | 473 kts | 230° |
| 2026-04-10 18:18 | 19.56849 | -61.52772 | 36067 ft | 472 kts | 230° |
| 2026-04-10 18:18 | 19.52178 | -61.57689 | 36064 ft | 472 kts | 230° |
| 2026-04-10 18:19 | 19.47526 | -61.62583 | 36061 ft | 472 kts | 230° |
| 2026-04-10 18:19 | 19.42880 | -61.67465 | 36062 ft | 472 kts | 230° |
| 2026-04-10 18:20 | 19.38222 | -61.72355 | 36055 ft | 472 kts | 230° |
| 2026-04-10 18:20 | 19.33554 | -61.77251 | 36059 ft | 471 kts | 230° |
| 2026-04-10 18:21 | 19.28892 | -61.82139 | 36058 ft | 471 kts | 230° |
| 2026-04-10 18:21 | 19.24232 | -61.87019 | 36059 ft | 471 kts | 230° |
| 2026-04-10 18:22 | 19.19600 | -61.91866 | 36019 ft | 471 kts | 230° |
| 2026-04-10 18:22 | 19.14985 | -61.96691 | 36055 ft | 464 kts | 230° |
| 2026-04-10 18:23 | 19.10419 | -62.01462 | 36054 ft | 458 kts | 230° |
| 2026-04-10 18:23 | 19.05898 | -62.06181 | 36050 ft | 453 kts | 230° |
| 2026-04-10 18:23 | 19.03653 | -62.08525 | 35872 ft | 456 kts | 230° |
| 2026-04-10 18:24 | 19.01376 | -62.10908 | 35360 ft | 467 kts | 230° |
| 2026-04-10 18:24 | 18.99042 | -62.13351 | 34897 ft | 475 kts | 230° |
| 2026-04-10 18:24 | 18.96683 | -62.15815 | 34587 ft | 479 kts | 230° |
| 2026-04-10 18:24 | 18.94302 | -62.18295 | 34327 ft | 479 kts | 230° |
| 2026-04-10 18:25 | 18.91943 | -62.20744 | 33798 ft | 474 kts | 230° |
| 2026-04-10 18:25 | 18.89600 | -62.23177 | 33146 ft | 471 kts | 229° |
| 2026-04-10 18:25 | 18.87269 | -62.25602 | 32498 ft | 469 kts | 229° |
| 2026-04-10 18:25 | 18.84945 | -62.28019 | 31860 ft | 467 kts | 229° |
| 2026-04-10 18:26 | 18.82669 | -62.30386 | 31258 ft | 466 kts | 228° |
| 2026-04-10 18:26 | 18.80330 | -62.32819 | 30657 ft | 464 kts | 227° |
| 2026-04-10 18:26 | 18.78032 | -62.35207 | 30014 ft | 464 kts | 227° |
| 2026-04-10 18:26 | 18.75760 | -62.37567 | 29226 ft | 466 kts | 227° |
| 2026-04-10 18:27 | 18.73448 | -62.39966 | 28441 ft | 467 kts | 227° |
| 2026-04-10 18:27 | 18.71124 | -62.42376 | 27676 ft | 469 kts | 226° |
| 2026-04-10 18:27 | 18.68792 | -62.44794 | 26946 ft | 470 kts | 226° |
| 2026-04-10 18:27 | 18.66451 | -62.47220 | 26217 ft | 472 kts | 226° |
| 2026-04-10 18:28 | 18.64105 | -62.49649 | 25510 ft | 473 kts | 226° |
| 2026-04-10 18:28 | 18.61750 | -62.52087 | 24817 ft | 475 kts | 226° |
| 2026-04-10 18:28 | 18.59392 | -62.54527 | 24138 ft | 476 kts | 226° |
| 2026-04-10 18:28 | 18.57026 | -62.56977 | 23470 ft | 477 kts | 226° |
| 2026-04-10 18:29 | 18.54663 | -62.59422 | 22744 ft | 477 kts | 226° |
| 2026-04-10 18:29 | 18.52297 | -62.61870 | 22109 ft | 475 kts | 226° |
| 2026-04-10 18:29 | 18.50739 | -62.63479 | 21696 ft | 473 kts | 226° |
| 2026-04-10 18:29 | 18.47625 | -62.66697 | 20888 ft | 471 kts | 225° |
| 2026-04-10 18:30 | 18.45288 | -62.69109 | 20289 ft | 468 kts | 226° |
| 2026-04-10 18:30 | 18.42968 | -62.71504 | 19713 ft | 466 kts | 226° |
| 2026-04-10 18:30 | 18.41406 | -62.73117 | 19337 ft | 464 kts | 226° |
| 2026-04-10 18:30 | 18.39144 | -62.75452 | 18795 ft | 462 kts | 226° |
| 2026-04-10 18:31 | 18.36815 | -62.77856 | 18292 ft | 459 kts | 226° |
| 2026-04-10 18:31 | 18.34800 | -62.80374 | 17651 ft | 454 kts | 238° |
| 2026-04-10 18:31 | 18.33172 | -62.83202 | 17053 ft | 450 kts | 242° |
| 2026-04-10 18:31 | 18.31721 | -62.86106 | 16572 ft | 444 kts | 245° |
| 2026-04-10 18:32 | 18.30449 | -62.89061 | 16015 ft | 440 kts | 249° |
| 2026-04-10 18:32 | 18.29445 | -62.92064 | 15659 ft | 431 kts | 254° |
| 2026-04-10 18:32 | 18.28596 | -62.95049 | 15313 ft | 421 kts | 255° |
| 2026-04-10 18:32 | 18.27788 | -62.97942 | 14953 ft | 403 kts | 255° |
| 2026-04-10 18:33 | 18.27021 | -63.00729 | 14512 ft | 390 kts | 255° |
| 2026-04-10 18:33 | 18.26273 | -63.03436 | 14072 ft | 383 kts | 255° |
| 2026-04-10 18:33 | 18.25519 | -63.06138 | 13597 ft | 385 kts | 255° |
| 2026-04-10 18:33 | 18.24773 | -63.08839 | 13091 ft | 384 kts | 255° |
| 2026-04-10 18:34 | 18.24045 | -63.11501 | 12599 ft | 381 kts | 255° |
| 2026-04-10 18:34 | 18.23306 | -63.14172 | 12106 ft | 378 kts | 255° |
| 2026-04-10 18:34 | 18.22558 | -63.16813 | 11613 ft | 375 kts | 255° |
| 2026-04-10 18:34 | 18.21822 | -63.19442 | 11153 ft | 373 kts | 256° |
| 2026-04-10 18:35 | 18.21092 | -63.22048 | 10676 ft | 370 kts | 255° |
| 2026-04-10 18:35 | 18.20360 | -63.24632 | 10221 ft | 367 kts | 255° |
| 2026-04-10 18:35 | 18.19634 | -63.27183 | 9739 ft | 360 kts | 255° |
| 2026-04-10 18:35 | 18.18945 | -63.29672 | 9238 ft | 346 kts | 256° |
| 2026-04-10 18:36 | 18.18297 | -63.32070 | 8723 ft | 335 kts | 255° |
| 2026-04-10 18:36 | 18.17484 | -63.34328 | 8111 ft | 327 kts | 238° |
| 2026-04-10 18:36 | 18.16040 | -63.36113 | 7527 ft | 317 kts | 220° |
| 2026-04-10 18:36 | 18.14350 | -63.37565 | 6939 ft | 310 kts | 215° |
| 2026-04-10 18:37 | 18.12668 | -63.38951 | 6420 ft | 302 kts | 215° |
| 2026-04-10 18:37 | 18.11052 | -63.40301 | 6052 ft | 293 kts | 216° |
| 2026-04-10 18:37 | 18.09477 | -63.41614 | 5700 ft | 293 kts | 216° |
| 2026-04-10 18:37 | 18.07883 | -63.42934 | 5330 ft | 290 kts | 214° |
| 2026-04-10 18:38 | 18.06141 | -63.43879 | 5049 ft | 273 kts | 189° |
| 2026-04-10 18:38 | 18.04334 | -63.44047 | 5004 ft | 253 kts | 176° |
| 2026-04-10 18:38 | 18.02607 | -63.43971 | 5001 ft | 246 kts | 173° |
| 2026-04-10 18:38 | 18.00997 | -63.43543 | 4995 ft | 237 kts | 144° |
| 2026-04-10 18:39 | 17.99980 | -63.42233 | 4995 ft | 232 kts | 107° |
| 2026-04-10 18:39 | 17.99859 | -63.40623 | 5025 ft | 218 kts | 85° |
| 2026-04-10 18:39 | 18.00087 | -63.39054 | 5025 ft | 217 kts | 83° |
| 2026-04-10 18:39 | 18.00342 | -63.37471 | 4860 ft | 220 kts | 83° |
| 2026-04-10 18:40 | 18.00567 | -63.35882 | 4540 ft | 219 kts | 84° |
| 2026-04-10 18:40 | 18.00779 | -63.34320 | 4182 ft | 213 kts | 83° |
| 2026-04-10 18:40 | 18.00993 | -63.32826 | 3853 ft | 206 kts | 84° |
| 2026-04-10 18:40 | 18.01200 | -63.31349 | 3568 ft | 204 kts | 83° |
| 2026-04-10 18:41 | 18.01407 | -63.29878 | 3304 ft | 204 kts | 83° |
| 2026-04-10 18:41 | 18.01614 | -63.28410 | 3056 ft | 201 kts | 83° |
| 2026-04-10 18:41 | 18.01818 | -63.26965 | 2776 ft | 200 kts | 83° |
| 2026-04-10 18:41 | 18.02023 | -63.25523 | 2493 ft | 199 kts | 83° |
| 2026-04-10 18:42 | 18.02223 | -63.24089 | 2238 ft | 198 kts | 82° |
| 2026-04-10 18:42 | 18.02426 | -63.22672 | 1976 ft | 196 kts | 83° |
| 2026-04-10 18:42 | 18.02625 | -63.21260 | 1719 ft | 194 kts | 83° |
| 2026-04-10 18:42 | 18.02820 | -63.19886 | 1448 ft | 185 kts | 83° |
| 2026-04-10 18:43 | 18.03002 | -63.18595 | 1240 ft | 173 kts | 83° |
| 2026-04-10 18:43 | 18.03177 | -63.17361 | 1013 ft | 169 kts | 80° |
| 2026-04-10 18:43 | 18.03365 | -63.16140 | 784 ft | 170 kts | 80° |
| 2026-04-10 18:43 | 18.03540 | -63.14909 | 533 ft | 170 kts | 80° |
| 2026-04-10 18:44 | 18.03686 | -63.13687 | 367 ft | 169 kts | 80° |
| 2026-04-10 18:44 | 18.03860 | -63.12477 | 153 ft | 164 kts | 79° |
| 2026-04-10 18:44 | 18.04037 | -63.11318 | 29 ft | 155 kts | 83° |
| 2026-04-10 18:44 | 18.04153 | -63.10501 | 26 ft | 82 kts | 79° |
| 2026-04-10 18:45 | 18.04210 | -63.10080 | 28 ft | 36 kts | 82° |
| 2026-04-10 18:45 | 18.04231 | -63.09902 | 29 ft | 19 kts | 94° |
| 2026-04-10 18:45 | 18.04257 | -63.09842 | 30 ft | 4 kts | 340° |
| 2026-04-10 18:45 | 18.04253 | -63.09877 | 29 ft | 11 kts | 253° |
| 2026-04-10 18:46 | 18.04218 | -63.10005 | 25 ft | 25 kts | 258° |
| 2026-04-10 18:46 | 18.04194 | -63.10223 | 26 ft | 32 kts | 262° |
| 2026-04-10 18:46 | 18.04161 | -63.10450 | 28 ft | 31 kts | 261° |
| 2026-04-10 18:46 | 18.04130 | -63.10663 | 27 ft | 29 kts | 261° |
| 2026-04-10 18:47 | 18.04100 | -63.10866 | 31 ft | 28 kts | 261° |
| 2026-04-10 18:47 | 18.04070 | -63.11061 | 28 ft | 26 kts | 261° |
| 2026-04-10 18:47 | 18.04044 | -63.11236 | 31 ft | 17 kts | 261° |
| 2026-04-10 18:47 | 18.04118 | -63.11300 | 26 ft | 15 kts | 348° |
| 2026-04-10 18:48 | 18.04212 | -63.11329 | 26 ft | 14 kts | 327° |
| 2026-04-10 18:48 | 18.04293 | -63.11357 | 26 ft | 9 kts | 351° |